Observation data for Mertzon on 09/16/2020      Previous  Date  Next       Current Mesonet Observations  Soil Data  Daily Summary Page  Observations in Plain Language
KME1 160500Z 00000KT 16/16 A3011 RMK A01 T01590159  RH  100%=      5-min Rain = 0
KME1 160501Z 00000KT 16/16 A3011 RMK A01 T01580159  RH  100%=      5-min Rain = 0
KME1 160502Z 00000KT 16/16 A3011 RMK A01 T01580158  RH  100%=      5-min Rain = 0
KME1 160503Z 00000KT 16/16 A3011 RMK A01 T01580158  RH  100%=      5-min Rain = 0
KME1 160504Z 00000KT 16/16 A3011 RMK A01 T01580158  RH  100%=      5-min Rain = 0
KME1 160505Z 00000KT 16/16 A3011 RMK A01 T01580158  RH  100%=      5-min Rain = 0
KME1 160506Z 00000KT 16/16 A3011 RMK A01 T01580158  RH  100%=      5-min Rain = 0
KME1 160507Z 02000KT 16/16 A3011 RMK A01 T01580158  RH  100%=      5-min Rain = 0
KME1 160508Z 03001KT 16/16 A3011 RMK A01 T01570158  RH  100%=      5-min Rain = 0
KME1 160509Z 03000KT 16/16 A3011 RMK A01 T01580158  RH  100%=      5-min Rain = 0
KME1 160510Z 04003KT 16/16 A3012 RMK A01 T01580158  RH  100%=      5-min Rain = 0
KME1 160511Z 03007KT 16/16 A3012 RMK A01 T01580158  RH  100%=      5-min Rain = 0
KME1 160512Z 02004KT 16/16 A3012 RMK A01 T01580158  RH  100%=      5-min Rain = 0
KME1 160513Z 35001KT 16/16 A3011 RMK A01 T01580158  RH  100%=      5-min Rain = 0
KME1 160514Z 32001KT 16/16 A3011 RMK A01 T01570158  RH  100%=      5-min Rain = 0
KME1 160515Z 03001KT 16/16 A3012 RMK A01 T01580158  RH  100%=      5-min Rain = 0
KME1 160516Z 05004KT 16/16 A3012 RMK A01 T01580159  RH  100%=      5-min Rain = 0
KME1 160517Z 05004KT 16/16 A3012 RMK A01 T01590159  RH  100%=      5-min Rain = 0
KME1 160518Z 05003KT 16/16 A3012 RMK A01 T01590159  RH  100%=      5-min Rain = 0
KME1 160519Z 03002KT 16/16 A3012 RMK A01 T01590159  RH  100%=      5-min Rain = 0
KME1 160520Z 06001KT 16/16 A3012 RMK A01 T01590159  RH  100%=      5-min Rain = 0
KME1 160521Z 05001KT 16/16 A3012 RMK A01 T01590159  RH  100%=      5-min Rain = 0
KME1 160522Z 03000KT 16/16 A3012 RMK A01 T01590159  RH  100%=      5-min Rain = 0
KME1 160523Z 00000KT 16/16 A3012 RMK A01 T01590159  RH  100%=      5-min Rain = 0
KME1 160524Z 00000KT 16/16 A3012 RMK A01 T01590159  RH  100%=      5-min Rain = 0
KME1 160525Z 00000KT 16/16 A3012 RMK A01 T01590159  RH  100%=      5-min Rain = 0
KME1 160526Z 00000KT 16/16 A3012 RMK A01 T01590159  RH  100%=      5-min Rain = 0
KME1 160527Z 00000KT 16/16 A3012 RMK A01 T01600160  RH  100%=      5-min Rain = 0
KME1 160528Z 00000KT 16/16 A3012 RMK A01 T01600161  RH  100%=      5-min Rain = 0
KME1 160529Z 27000KT 16/16 A3012 RMK A01 T01610161  RH  100%=      5-min Rain = 0
KME1 160530Z 30001KT 16/16 A3012 RMK A01 T01610162  RH  100%=      5-min Rain = 0
KME1 160531Z 29001KT 16/16 A3012 RMK A01 T01620162  RH  100%=      5-min Rain = 0
KME1 160532Z 31001KT 16/16 A3012 RMK A01 T01620163  RH  100%=      5-min Rain = 0
KME1 160533Z 32002KT 16/16 A3012 RMK A01 T01620162  RH  100%=      5-min Rain = 0
KME1 160534Z 32002KT 16/16 A3012 RMK A01 T01620162  RH  100%=      5-min Rain = 0
KME1 160535Z 29002KT 16/16 A3012 RMK A01 T01620162  RH  100%=      5-min Rain = 0
KME1 160536Z 27001KT 16/16 A3011 RMK A01 T01620162  RH  100%=      5-min Rain = 0
KME1 160537Z 26001KT 16/16 A3011 RMK A01 T01620162  RH  100%=      5-min Rain = 0
KME1 160538Z 27001KT 16/16 A3011 RMK A01 T01620162  RH  100%=      5-min Rain = 0
KME1 160539Z 26000KT 16/16 A3011 RMK A01 T01620162  RH  100%=      5-min Rain = 0
KME1 160540Z 29000KT 16/16 A3011 RMK A01 T01610161  RH  100%=      5-min Rain = 0
KME1 160541Z 29001KT 16/16 A3011 RMK A01 T01610161  RH  100%=      5-min Rain = 0
KME1 160542Z 00000KT 16/16 A3011 RMK A01 T01600160  RH  100%=      5-min Rain = 0
KME1 160543Z 00000KT 16/16 A3011 RMK A01 T01600160  RH  100%=      5-min Rain = 0
KME1 160544Z 00000KT 16/16 A3011 RMK A01 T01600160  RH  100%=      5-min Rain = 0
KME1 160545Z 00000KT 16/16 A3011 RMK A01 T01600160  RH  100%=      5-min Rain = 0
KME1 160546Z 00000KT 16/16 A3011 RMK A01 T01590159  RH  100%=      5-min Rain = 0
KME1 160547Z 00000KT 16/16 A3011 RMK A01 T01590159  RH  100%=      5-min Rain = 0
KME1 160548Z 00000KT 16/16 A3011 RMK A01 T01590159  RH  100%=      5-min Rain = 0
KME1 160549Z 00000KT 16/16 A3011 RMK A01 T01590159  RH  100%=      5-min Rain = 0
KME1 160550Z 15000KT 16/16 A3011 RMK A01 T01580159  RH  100%=      5-min Rain = 0
KME1 160551Z 17001KT 16/16 A3011 RMK A01 T01580159  RH  100%=      5-min Rain = 0
KME1 160552Z 17002KT 16/16 A3011 RMK A01 T01580158  RH  100%=      5-min Rain = 0
KME1 160553Z 18001KT 16/16 A3011 RMK A01 T01580158  RH  100%=      5-min Rain = 0
KME1 160554Z 19001KT 16/16 A3011 RMK A01 T01570157  RH  100%=      5-min Rain = 0
KME1 160555Z 21002KT 16/16 A3011 RMK A01 T01570157  RH  100%=      5-min Rain = 0
KME1 160556Z 22002KT 16/16 A3011 RMK A01 T01570157  RH  100%=      5-min Rain = 0
KME1 160557Z 21001KT 16/16 A3011 RMK A01 T01570157  RH  100%=      5-min Rain = 0
KME1 160558Z 22001KT 16/16 A3011 RMK A01 T01570157  RH  100%=      5-min Rain = 0
KME1 160559Z 19001KT 16/16 A3011 RMK A01 T01570157  RH  100%=      5-min Rain = 0
KME1 160600Z 20001KT 16/16 A3011 RMK A01 T01570157  RH  100%=      5-min Rain = 0
KME1 160601Z 23001KT 16/16 A3011 RMK A01 T01570157  RH  100%=      5-min Rain = 0
KME1 160602Z 23001KT 16/16 A3011 RMK A01 T01570157  RH  100%=      5-min Rain = 0
KME1 160603Z 25001KT 16/16 A3011 RMK A01 T01570157  RH  100%=      5-min Rain = 0
KME1 160604Z 24001KT 16/16 A3011 RMK A01 T01570157  RH  100%=      5-min Rain = 0
KME1 160605Z 24001KT 16/16 A3011 RMK A01 T01570157  RH  100%=      5-min Rain = 0
KME1 160606Z 24002KT 16/16 A3011 RMK A01 T01570157  RH  100%=      5-min Rain = 0
KME1 160607Z 25001KT 16/16 A3011 RMK A01 T01570157  RH  100%=      5-min Rain = 0
KME1 160608Z 25002KT 16/16 A3011 RMK A01 T01570157  RH  100%=      5-min Rain = 0
KME1 160609Z 24002KT 16/16 A3011 RMK A01 T01570157  RH  100%=      5-min Rain = 0
KME1 160610Z 24002KT 16/16 A3011 RMK A01 T01570157  RH  100%=      5-min Rain = 0
KME1 160611Z 24002KT 16/16 A3011 RMK A01 T01570157  RH  100%=      5-min Rain = 0
KME1 160612Z 25001KT 16/16 A3011 RMK A01 T01570157  RH  100%=      5-min Rain = 0
KME1 160613Z 24001KT 16/16 A3011 RMK A01 T01570157  RH  100%=      5-min Rain = 0
KME1 160614Z 24001KT 16/16 A3011 RMK A01 T01560156  RH  100%=      5-min Rain = 0
KME1 160615Z 24002KT 16/16 A3011 RMK A01 T01560156  RH  100%=      5-min Rain = 0
KME1 160616Z 23002KT 16/16 A3011 RMK A01 T01560156  RH  100%=      5-min Rain = 0
KME1 160617Z 23002KT 16/16 A3011 RMK A01 T01560156  RH  100%=      5-min Rain = 0
KME1 160618Z 23002KT 16/16 A3011 RMK A01 T01560157  RH  100%=      5-min Rain = 0
KME1 160619Z 23002KT 16/16 A3011 RMK A01 T01570157  RH  100%=      5-min Rain = 0
KME1 160620Z 24002KT 16/16 A3011 RMK A01 T01570157  RH  100%=      5-min Rain = 0
KME1 160621Z 24002KT 16/16 A3011 RMK A01 T01580158  RH  100%=      5-min Rain = 0
KME1 160622Z 22002KT 16/16 A3011 RMK A01 T01580158  RH  100%=      5-min Rain = 0
KME1 160623Z 23002KT 16/16 A3011 RMK A01 T01580158  RH  100%=      5-min Rain = 0
KME1 160624Z 23003KT 16/16 A3011 RMK A01 T01580158  RH  100%=      5-min Rain = 0
KME1 160625Z 23003KT 16/16 A3011 RMK A01 T01580158  RH  100%=      5-min Rain = 0
KME1 160626Z 24003KT 16/16 A3011 RMK A01 T01580158  RH  100%=      5-min Rain = 0
KME1 160627Z 24002KT 16/16 A301 RMK A01 T01580158  RH  100%=      5-min Rain = 0
KME1 160628Z 24002KT 16/16 A301 RMK A01 T01570158  RH  100%=      5-min Rain = 0
KME1 160629Z 25001KT 16/16 A301 RMK A01 T01570158  RH  100%=      5-min Rain = 0
KME1 160630Z 24001KT 16/16 A301 RMK A01 T01580158  RH  100%=      5-min Rain = 0
KME1 160631Z 24000KT 16/16 A301 RMK A01 T01580158  RH  100%=      5-min Rain = 0
KME1 160632Z 00000KT 16/16 A301 RMK A01 T01570157  RH  100%=      5-min Rain = 0
KME1 160633Z 21001KT 16/16 A301 RMK A01 T01560157  RH  100%=      5-min Rain = 0
KME1 160634Z 21001KT 16/16 A301 RMK A01 T01560156  RH  100%=      5-min Rain = 0
KME1 160635Z 20001KT 16/16 A301 RMK A01 T01560156  RH  100%=      5-min Rain = 0
KME1 160636Z 21002KT 16/16 A301 RMK A01 T01560156  RH  100%=      5-min Rain = 0
KME1 160637Z 22001KT 16/16 A301 RMK A01 T01550155  RH  100%=      5-min Rain = 0
KME1 160638Z 17001KT 16/16 A301 RMK A01 T01550155  RH  100%=      5-min Rain = 0
KME1 160639Z 21001KT 16/16 A301 RMK A01 T01550155  RH  100%=      5-min Rain = 0
KME1 160640Z 21001KT 15/16 A301 RMK A01 T01540155  RH  100%=      5-min Rain = 0
KME1 160641Z 18001KT 15/15 A301 RMK A01 T01540154  RH  100%=      5-min Rain = 0
KME1 160642Z 18001KT 15/15 A301 RMK A01 T01540154  RH  100%=      5-min Rain = 0
KME1 160643Z 18001KT 15/15 A301 RMK A01 T01540154  RH  100%=      5-min Rain = 0
KME1 160644Z 20001KT 15/15 A301 RMK A01 T01540154  RH  100%=      5-min Rain = 0
KME1 160645Z 21001KT 15/15 A301 RMK A01 T01540154  RH  100%=      5-min Rain = 0
KME1 160646Z 20001KT 15/15 A301 RMK A01 T01540154  RH  100%=      5-min Rain = 0
KME1 160647Z 20001KT 15/15 A301 RMK A01 T01530153  RH  100%=      5-min Rain = 0
KME1 160648Z 21001KT 15/15 A301 RMK A01 T01530153  RH  100%=      5-min Rain = 0
KME1 160649Z 21002KT 15/15 A301 RMK A01 T01530153  RH  100%=      5-min Rain = 0
KME1 160650Z 20002KT 15/15 A301 RMK A01 T01540154  RH  100%=      5-min Rain = 0
KME1 160651Z 20002KT 15/15 A301 RMK A01 T01540154  RH  100%=      5-min Rain = 0
KME1 160652Z 21002KT 15/15 A301 RMK A01 T01540154  RH  100%=      5-min Rain = 0
KME1 160653Z 21002KT 15/15 A301 RMK A01 T01540154  RH  100%=      5-min Rain = 0
KME1 160654Z 20002KT 15/15 A301 RMK A01 T01540154  RH  100%=      5-min Rain = 0
KME1 160655Z 20002KT 15/15 A301 RMK A01 T01540154  RH  100%=      5-min Rain = 0
KME1 160656Z 20002KT 15/15 A301 RMK A01 T01540154  RH  100%=      5-min Rain = 0
KME1 160657Z 20002KT 15/15 A301 RMK A01 T01540154  RH  100%=      5-min Rain = 0
KME1 160658Z 20002KT 15/15 A301 RMK A01 T01530154  RH  100%=      5-min Rain = 0
KME1 160659Z 20002KT 15/15 A301 RMK A01 T01530154  RH  100%=      5-min Rain = 0
KME1 160700Z 20002KT 15/15 A301 RMK A01 T01530154  RH  100%=      5-min Rain = 0
KME1 160701Z 21003KT 15/15 A301 RMK A01 T01530154  RH  100%=      5-min Rain = 0
KME1 160702Z 20002KT 15/15 A301 RMK A01 T01530153  RH  100%=      5-min Rain = 0
KME1 160703Z 20002KT 15/15 A301 RMK A01 T01530153  RH  100%=      5-min Rain = 0
KME1 160704Z 20002KT 15/15 A301 RMK A01 T01540154  RH  100%=      5-min Rain = 0
KME1 160705Z 21003KT 15/15 A301 RMK A01 T01540154  RH  100%=      5-min Rain = 0
KME1 160706Z 21003KT 15/16 A301 RMK A01 T01540155  RH  100%=      5-min Rain = 0
KME1 160707Z 21002KT 16/16 A301 RMK A01 T01550155  RH  100%=      5-min Rain = 0
KME1 160708Z 21003KT 16/16 A301 RMK A01 T01550155  RH  100%=      5-min Rain = 0
KME1 160709Z 21002KT 16/16 A301 RMK A01 T01550155  RH  100%=      5-min Rain = 0
KME1 160710Z 21003KT 16/16 A301 RMK A01 T01550155  RH  100%=      5-min Rain = 0
KME1 160711Z 21002KT 16/16 A301 RMK A01 T01550155  RH  100%=      5-min Rain = 0
KME1 160712Z 22002KT 16/16 A301 RMK A01 T01550155  RH  100%=      5-min Rain = 0
KME1 160713Z 22002KT 16/16 A301 RMK A01 T01550155  RH  100%=      5-min Rain = 0
KME1 160714Z 21002KT 16/16 A301 RMK A01 T01550155  RH  100%=      5-min Rain = 0
KME1 160715Z 22003KT 16/16 A301 RMK A01 T01550155  RH  100%=      5-min Rain = 0
KME1 160716Z 21002KT 16/16 A301 RMK A01 T01550155  RH  100%=      5-min Rain = 0
KME1 160717Z 22002KT 16/16 A301 RMK A01 T01550155  RH  100%=      5-min Rain = 0
KME1 160718Z 24001KT 16/16 A301 RMK A01 T01550156  RH  100%=      5-min Rain = 0
KME1 160719Z 24002KT 16/16 A301 RMK A01 T01550156  RH  100%=      5-min Rain = 0
KME1 160720Z 24002KT 16/16 A301 RMK A01 T01550156  RH  100%=      5-min Rain = 0
KME1 160721Z 24001KT 16/16 A301 RMK A01 T01560156  RH  100%=      5-min Rain = 0
KME1 160722Z 22001KT 16/16 A301 RMK A01 T01560156  RH  100%=      5-min Rain = 0
KME1 160723Z 22001KT 16/16 A301 RMK A01 T01560156  RH  100%=      5-min Rain = 0
KME1 160724Z 22001KT 16/16 A301 RMK A01 T01560156  RH  100%=      5-min Rain = 0
KME1 160725Z 23001KT 16/16 A301 RMK A01 T01560156  RH  100%=      5-min Rain = 0
KME1 160726Z 20000KT 16/16 A301 RMK A01 T01550155  RH  100%=      5-min Rain = 0
KME1 160727Z 19000KT 16/16 A301 RMK A01 T01560156  RH  100%=      5-min Rain = 0
KME1 160728Z 20001KT 16/16 A301 RMK A01 T01550155  RH  100%=      5-min Rain = 0
KME1 160729Z 21002KT 15/15 A301 RMK A01 T01540154  RH  100%=      5-min Rain = 0
KME1 160730Z 21003KT 16/16 A301 RMK A01 T01550155  RH  100%=      5-min Rain = 0
KME1 160731Z 21003KT 16/16 A301 RMK A01 T01550155  RH  100%=      5-min Rain = 0
KME1 160732Z 21002KT 16/16 A301 RMK A01 T01560156  RH  100%=      5-min Rain = 0
KME1 160733Z 21002KT 16/16 A301 RMK A01 T01560156  RH  100%=      5-min Rain = 0
KME1 160734Z 21002KT 16/16 A301 RMK A01 T01560156  RH  100%=      5-min Rain = 0
KME1 160735Z 20002KT 16/16 A301 RMK A01 T01550156  RH  100%=      5-min Rain = 0
KME1 160736Z 20002KT 16/16 A301 RMK A01 T01550155  RH  100%=      5-min Rain = 0
KME1 160737Z 19002KT 16/16 A301 RMK A01 T01550155  RH  100%=      5-min Rain = 0
KME1 160738Z 20002KT 16/16 A301 RMK A01 T01550155  RH  100%=      5-min Rain = 0
KME1 160739Z 20002KT 16/16 A301 RMK A01 T01550155  RH  100%=      5-min Rain = 0
KME1 160740Z 19002KT 16/16 A3009 RMK A01 T01550156  RH  100%=      5-min Rain = 0
KME1 160741Z 20002KT 16/16 A3009 RMK A01 T01550155  RH  100%=      5-min Rain = 0
KME1 160742Z 21002KT 16/16 A3009 RMK A01 T01550155  RH  100%=      5-min Rain = 0
KME1 160743Z 21002KT 16/16 A3009 RMK A01 T01550155  RH  100%=      5-min Rain = 0
KME1 160744Z 20002KT 16/16 A3009 RMK A01 T01550155  RH  100%=      5-min Rain = 0
KME1 160745Z 20002KT 16/16 A3009 RMK A01 T01550155  RH  100%=      5-min Rain = 0
KME1 160746Z 20002KT 16/16 A3009 RMK A01 T01550155  RH  100%=      5-min Rain = 0
KME1 160747Z 20002KT 16/16 A3009 RMK A01 T01550155  RH  100%=      5-min Rain = 0
KME1 160748Z 20002KT 16/16 A3009 RMK A01 T01550155  RH  100%=      5-min Rain = 0
KME1 160749Z 20002KT 15/16 A3009 RMK A01 T01540155  RH  100%=      5-min Rain = 0
KME1 160750Z 20002KT 15/16 A3009 RMK A01 T01540155  RH  100%=      5-min Rain = 0
KME1 160751Z 21002KT 15/16 A3009 RMK A01 T01540155  RH  100%=      5-min Rain = 0
KME1 160752Z 20002KT 15/15 A3009 RMK A01 T01540154  RH  100%=      5-min Rain = 0
KME1 160753Z 20003KT 15/15 A3009 RMK A01 T01540154  RH  100%=      5-min Rain = 0
KME1 160754Z 20003KT 15/15 A3009 RMK A01 T01540154  RH  100%=      5-min Rain = 0
KME1 160755Z 21002KT 15/15 A3009 RMK A01 T01540154  RH  100%=      5-min Rain = 0
KME1 160756Z 21002KT 15/15 A3009 RMK A01 T01540154  RH  100%=      5-min Rain = 0
KME1 160757Z 21002KT 15/15 A3009 RMK A01 T01540154  RH  100%=      5-min Rain = 0
KME1 160758Z 21002KT 15/15 A3009 RMK A01 T01540154  RH  100%=      5-min Rain = 0
KME1 160759Z 21002KT 15/15 A3009 RMK A01 T01540154  RH  100%=      5-min Rain = 0
KME1 160800Z 21002KT 15/15 A3009 RMK A01 T01540154  RH  100%=      5-min Rain = 0
KME1 160801Z 21002KT 15/15 A3009 RMK A01 T01540154  RH  100%=      5-min Rain = 0
KME1 160802Z 21002KT 15/15 A3009 RMK A01 T01540154  RH  100%=      5-min Rain = 0
KME1 160803Z 21002KT 15/15 A3009 RMK A01 T01540154  RH  100%=      5-min Rain = 0
KME1 160804Z 21002KT 15/15 A3009 RMK A01 T01540154  RH  100%=      5-min Rain = 0
KME1 160805Z 20002KT 15/15 A3009 RMK A01 T01540154  RH  100%=      5-min Rain = 0
KME1 160806Z 20003KT 15/15 A3009 RMK A01 T01540154  RH  100%=      5-min Rain = 0
KME1 160807Z 20003KT 15/15 A3009 RMK A01 T01540154  RH  100%=      5-min Rain = 0
KME1 160808Z 20003KT 15/15 A3009 RMK A01 T01540154  RH  100%=      5-min Rain = 0
KME1 160809Z 20003KT 15/15 A3009 RMK A01 T01530154  RH  100%=      5-min Rain = 0
KME1 160810Z 20003KT 15/15 A3009 RMK A01 T01530153  RH  100%=      5-min Rain = 0
KME1 160811Z 20003KT 15/15 A3009 RMK A01 T01530153  RH  100%=      5-min Rain = 0
KME1 160812Z 19002KT 15/15 A3009 RMK A01 T01530153  RH  100%=      5-min Rain = 0
KME1 160813Z 20002KT 15/15 A3009 RMK A01 T01530153  RH  100%=      5-min Rain = 0
KME1 160814Z 20002KT 15/15 A3009 RMK A01 T01530153  RH  100%=      5-min Rain = 0
KME1 160815Z 20002KT 15/15 A3009 RMK A01 T01530153  RH  100%=      5-min Rain = 0
KME1 160816Z 21002KT 15/15 A3009 RMK A01 T01530153  RH  100%=      5-min Rain = 0
KME1 160817Z 21002KT 15/15 A3009 RMK A01 T01530153  RH  100%=      5-min Rain = 0
KME1 160818Z 21002KT 15/15 A3009 RMK A01 T01530153  RH  100%=      5-min Rain = 0
KME1 160819Z 21002KT 15/15 A3009 RMK A01 T01530153  RH  100%=      5-min Rain = 0
KME1 160820Z 21002KT 15/15 A3009 RMK A01 T01530153  RH  100%=      5-min Rain = 0
KME1 160821Z 21002KT 15/15 A3009 RMK A01 T01530153  RH  100%=      5-min Rain = 0
KME1 160822Z 22002KT 15/15 A3009 RMK A01 T01530153  RH  100%=      5-min Rain = 0
KME1 160823Z 21002KT 15/15 A3009 RMK A01 T01530153  RH  100%=      5-min Rain = 0
KME1 160824Z 22002KT 15/15 A3009 RMK A01 T01530153  RH  100%=      5-min Rain = 0
KME1 160825Z 22002KT 15/15 A3009 RMK A01 T01530153  RH  100%=      5-min Rain = 0
KME1 160826Z 23002KT 15/15 A3009 RMK A01 T01530153  RH  100%=      5-min Rain = 0
KME1 160827Z 23002KT 15/15 A3009 RMK A01 T01530153  RH  100%=      5-min Rain = 0
KME1 160828Z 23002KT 15/15 A3009 RMK A01 T01530153  RH  100%=      5-min Rain = 0
KME1 160829Z 24002KT 15/15 A3009 RMK A01 T01530153  RH  100%=      5-min Rain = 0
KME1 160830Z 23002KT 15/15 A3009 RMK A01 T01530153  RH  100%=      5-min Rain = 0
KME1 160831Z 23002KT 15/15 A3009 RMK A01 T01530153  RH  100%=      5-min Rain = 0
KME1 160832Z 24002KT 15/15 A3009 RMK A01 T01530153  RH  100%=      5-min Rain = 0
KME1 160833Z 24002KT 15/15 A3009 RMK A01 T01530153  RH  100%=      5-min Rain = 0
KME1 160834Z 24002KT 15/15 A3009 RMK A01 T01530154  RH  100%=      5-min Rain = 0
KME1 160835Z 24002KT 15/15 A3009 RMK A01 T01530153  RH  100%=      5-min Rain = 0
KME1 160836Z 23002KT 15/15 A3009 RMK A01 T01540154  RH  100%=      5-min Rain = 0
KME1 160837Z 24001KT 15/15 A3009 RMK A01 T01530154  RH  100%=      5-min Rain = 0
KME1 160838Z 23001KT 15/15 A3009 RMK A01 T01540154  RH  100%=      5-min Rain = 0
KME1 160839Z 24001KT 15/15 A3008 RMK A01 T01540154  RH  100%=      5-min Rain = 0
KME1 160840Z 22001KT 15/15 A3008 RMK A01 T01540154  RH  100%=      5-min Rain = 0
KME1 160841Z 21001KT 15/15 A3008 RMK A01 T01530154  RH  100%=      5-min Rain = 0
KME1 160842Z 21001KT 15/15 A3008 RMK A01 T01540154  RH  100%=      5-min Rain = 0
KME1 160843Z 22001KT 15/15 A3008 RMK A01 T01540154  RH  100%=      5-min Rain = 0
KME1 160844Z 21002KT 15/15 A3008 RMK A01 T01540154  RH  100%=      5-min Rain = 0
KME1 160845Z 21002KT 15/15 A3008 RMK A01 T01540154  RH  100%=      5-min Rain = 0
KME1 160846Z 21002KT 15/15 A3008 RMK A01 T01540154  RH  100%=      5-min Rain = 0
KME1 160847Z 21002KT 15/15 A3008 RMK A01 T01540154  RH  100%=      5-min Rain = 0
KME1 160848Z 20002KT 15/15 A3008 RMK A01 T01530154  RH  100%=      5-min Rain = 0
KME1 160849Z 20002KT 15/15 A3008 RMK A01 T01530153  RH  100%=      5-min Rain = 0
KME1 160850Z 21002KT 15/15 A3008 RMK A01 T01530153  RH  100%=      5-min Rain = 0
KME1 160851Z 21002KT 15/15 A3008 RMK A01 T01530153  RH  100%=      5-min Rain = 0
KME1 160852Z 22002KT 15/15 A3008 RMK A01 T01530153  RH  100%=      5-min Rain = 0
KME1 160853Z 23001KT 15/15 A3008 RMK A01 T01530154  RH  100%=      5-min Rain = 0
KME1 160854Z 23001KT 15/15 A3008 RMK A01 T01540154  RH  100%=      5-min Rain = 0
KME1 160855Z 23001KT 15/15 A3008 RMK A01 T01540154  RH  100%=      5-min Rain = 0
KME1 160856Z 24001KT 15/15 A3008 RMK A01 T01540154  RH  100%=      5-min Rain = 0
KME1 160857Z 25001KT 15/15 A3008 RMK A01 T01540154  RH  100%=      5-min Rain = 0
KME1 160858Z 24001KT 15/15 A3008 RMK A01 T01530154  RH  100%=      5-min Rain = 0
KME1 160859Z 27000KT 15/15 A3008 RMK A01 T01530153  RH  100%=      5-min Rain = 0
KME1 160900Z 00000KT 15/15 A3008 RMK A01 T01530153  RH  100%=      5-min Rain = 0
KME1 160901Z 00000KT 15/15 A3008 RMK A01 T01530153  RH  100%=      5-min Rain = 0
KME1 160902Z 00000KT 15/15 A3008 RMK A01 T01530153  RH  100%=      5-min Rain = 0
KME1 160903Z 00000KT 15/15 A3008 RMK A01 T01530153  RH  100%=      5-min Rain = 0
KME1 160904Z 00000KT 15/15 A3008 RMK A01 T01530153  RH  100%=      5-min Rain = 0
KME1 160905Z 00000KT 15/15 A3008 RMK A01 T01530153  RH  100%=      5-min Rain = 0
KME1 160906Z 00000KT 15/15 A3008 RMK A01 T01520152  RH  100%=      5-min Rain = 0
KME1 160907Z 00000KT 15/15 A3008 RMK A01 T01510151  RH  100%=      5-min Rain = 0
KME1 160908Z 00000KT 15/15 A3008 RMK A01 T01500151  RH  100%=      5-min Rain = 0
KME1 160909Z 00000KT 15/15 A3008 RMK A01 T01500150  RH  100%=      5-min Rain = 0
KME1 160910Z 00000KT 15/15 A3008 RMK A01 T01500150  RH  100%=      5-min Rain = 0
KME1 160911Z 21000KT 15/15 A3008 RMK A01 T01490149  RH  100%=      5-min Rain = 0
KME1 160912Z 22001KT 15/15 A3008 RMK A01 T01490149  RH  100%=      5-min Rain = 0
KME1 160913Z 24000KT 15/15 A3008 RMK A01 T01490149  RH  100%=      5-min Rain = 0
KME1 160914Z 00000KT 15/15 A3008 RMK A01 T01490149  RH  100%=      5-min Rain = 0
KME1 160915Z 00000KT 15/15 A3008 RMK A01 T01500150  RH  100%=      5-min Rain = 0
KME1 160916Z 00000KT 15/15 A3008 RMK A01 T01490150  RH  100%=      5-min Rain = 0
KME1 160917Z 00000KT 15/15 A3008 RMK A01 T01490150  RH  100%=      5-min Rain = 0
KME1 160918Z 00000KT 15/15 A3008 RMK A01 T01500150  RH  100%=      5-min Rain = 0
KME1 160919Z 00000KT 15/15 A3008 RMK A01 T01490150  RH  100%=      5-min Rain = 0
KME1 160920Z 00000KT 15/15 A3008 RMK A01 T01490149  RH  100%=      5-min Rain = 0
KME1 160921Z 00000KT 15/15 A3008 RMK A01 T01490149  RH  100%=      5-min Rain = 0
KME1 160922Z 00000KT 15/15 A3008 RMK A01 T01490150  RH  100%=      5-min Rain = 0
KME1 160923Z 00000KT 15/15 A3008 RMK A01 T01490149  RH  100%=      5-min Rain = 0
KME1 160924Z 00000KT 15/15 A3008 RMK A01 T01490149  RH  100%=      5-min Rain = 0
KME1 160925Z 00000KT 15/15 A3008 RMK A01 T01500150  RH  100%=      5-min Rain = 0
KME1 160926Z 00000KT 15/15 A3008 RMK A01 T01490149  RH  100%=      5-min Rain = 0
KME1 160927Z 00000KT 15/15 A3008 RMK A01 T01500150  RH  100%=      5-min Rain = 0
KME1 160928Z 32000KT 15/15 A3008 RMK A01 T01500150  RH  100%=      5-min Rain = 0
KME1 160929Z 00000KT 15/15 A3008 RMK A01 T01500150  RH  100%=      5-min Rain = 0
KME1 160930Z 28000KT 15/15 A3008 RMK A01 T01510151  RH  100%=      5-min Rain = 0
KME1 160931Z 31000KT 15/15 A3008 RMK A01 T01510151  RH  100%=      5-min Rain = 0
KME1 160932Z 31000KT 15/15 A3008 RMK A01 T01510151  RH  100%=      5-min Rain = 0
KME1 160933Z 00000KT 15/15 A3008 RMK A01 T01520152  RH  100%=      5-min Rain = 0
KME1 160934Z 00000KT 15/15 A3008 RMK A01 T01520152  RH  100%=      5-min Rain = 0
KME1 160935Z 31000KT 15/15 A3008 RMK A01 T01520152  RH  100%=      5-min Rain = 0
KME1 160936Z 31001KT 15/15 A3008 RMK A01 T01520152  RH  100%=      5-min Rain = 0
KME1 160937Z 31001KT 15/15 A3008 RMK A01 T01520152  RH  100%=      5-min Rain = 0
KME1 160938Z 00000KT 15/15 A3008 RMK A01 T01520152  RH  100%=      5-min Rain = 0
KME1 160939Z 00000KT 15/15 A3008 RMK A01 T01520152  RH  100%=      5-min Rain = 0
KME1 160940Z 00000KT 15/15 A3008 RMK A01 T01520152  RH  100%=      5-min Rain = 0
KME1 160941Z 30000KT 15/15 A3008 RMK A01 T01520152  RH  100%=      5-min Rain = 0
KME1 160942Z 31001KT 15/15 A3008 RMK A01 T01520152  RH  100%=      5-min Rain = 0
KME1 160943Z 00000KT 15/15 A3008 RMK A01 T01520152  RH  100%=      5-min Rain = 0
KME1 160944Z 00000KT 15/15 A3008 RMK A01 T01520152  RH  100%=      5-min Rain = 0
KME1 160945Z 00000KT 15/15 A3008 RMK A01 T01520152  RH  100%=      5-min Rain = 0
KME1 160946Z 00000KT 15/15 A3008 RMK A01 T01520152  RH  100%=      5-min Rain = 0
KME1 160947Z 00000KT 15/15 A3008 RMK A01 T01520152  RH  100%=      5-min Rain = 0
KME1 160948Z 00000KT 15/15 A3008 RMK A01 T01520153  RH  100%=      5-min Rain = 0
KME1 160949Z 00000KT 15/15 A3008 RMK A01 T01530153  RH  100%=      5-min Rain = 0
KME1 160950Z 00000KT 15/15 A3008 RMK A01 T01530153  RH  100%=      5-min Rain = 0
KME1 160951Z 00000KT 15/15 A3008 RMK A01 T01530153  RH  100%=      5-min Rain = 0
KME1 160952Z 15000KT 15/15 A3008 RMK A01 T01530153  RH  100%=      5-min Rain = 0
KME1 160953Z 15001KT 15/15 A3008 RMK A01 T01530153  RH  100%=      5-min Rain = 0
KME1 160954Z 15001KT 15/15 A3008 RMK A01 T01530153  RH  100%=      5-min Rain = 0
KME1 160955Z 15001KT 15/15 A3008 RMK A01 T01530153  RH  100%=      5-min Rain = 0
KME1 160956Z 15001KT 15/15 A3008 RMK A01 T01540154  RH  100%=      5-min Rain = 0
KME1 160957Z 15001KT 15/15 A3008 RMK A01 T01540154  RH  100%=      5-min Rain = 0
KME1 160958Z 16001KT 15/15 A3008 RMK A01 T01540154  RH  100%=      5-min Rain = 0
KME1 160959Z 16001KT 15/15 A3008 RMK A01 T01540154  RH  100%=      5-min Rain = 0
KME1 161000Z 17001KT 15/15 A3008 RMK A01 T01540154  RH  100%=      5-min Rain = 0
KME1 161001Z 17001KT 15/15 A3008 RMK A01 T01540154  RH  100%=      5-min Rain = 0
KME1 161002Z 17000KT 16/16 A3008 RMK A01 T01550155  RH  100%=      5-min Rain = 0
KME1 161003Z 00000KT 15/16 A3008 RMK A01 T01540155  RH  100%=      5-min Rain = 0
KME1 161004Z 00000KT 15/16 A3008 RMK A01 T01540155  RH  100%=      5-min Rain = 0
KME1 161005Z 00000KT 15/16 A3008 RMK A01 T01540155  RH  100%=      5-min Rain = 0
KME1 161006Z 00000KT 16/16 A3008 RMK A01 T01550155  RH  100%=      5-min Rain = 0
KME1 161007Z 18000KT 15/15 A3008 RMK A01 T01540154  RH  100%=      5-min Rain = 0
KME1 161008Z 18001KT 15/15 A3008 RMK A01 T01540154  RH  100%=      5-min Rain = 0
KME1 161009Z 18000KT 15/16 A3008 RMK A01 T01540155  RH  100%=      5-min Rain = 0
KME1 161010Z 00000KT 16/16 A3008 RMK A01 T01550155  RH  100%=      5-min Rain = 0
KME1 161011Z 00000KT 16/16 A3008 RMK A01 T01550155  RH  100%=      5-min Rain = 0
KME1 161012Z 19000KT 16/16 A3008 RMK A01 T01550155  RH  100%=      5-min Rain = 0
KME1 161013Z 19001KT 16/16 A3008 RMK A01 T01550155  RH  100%=      5-min Rain = 0
KME1 161014Z 19001KT 16/16 A3008 RMK A01 T01560156  RH  100%=      5-min Rain = 0
KME1 161015Z 19000KT 16/16 A3008 RMK A01 T01560156  RH  100%=      5-min Rain = 0
KME1 161016Z 19001KT 16/16 A3008 RMK A01 T01570157  RH  100%=      5-min Rain = 0
KME1 161017Z 19001KT 16/16 A3008 RMK A01 T01570157  RH  100%=      5-min Rain = 0
KME1 161018Z 19001KT 16/16 A3008 RMK A01 T01570157  RH  100%=      5-min Rain = 0
KME1 161019Z 21001KT 16/16 A3008 RMK A01 T01570157  RH  100%=      5-min Rain = 0
KME1 161020Z 18001KT 16/16 A3008 RMK A01 T01570157  RH  100%=      5-min Rain = 0
KME1 161021Z 16001KT 16/16 A3008 RMK A01 T01570157  RH  100%=      5-min Rain = 0
KME1 161022Z 19000KT 16/16 A3008 RMK A01 T01570158  RH  100%=      5-min Rain = 0
KME1 161023Z 21001KT 16/16 A3008 RMK A01 T01580158  RH  100%=      5-min Rain = 0
KME1 161024Z 19001KT 16/16 A3008 RMK A01 T01580158  RH  100%=      5-min Rain = 0
KME1 161025Z 18001KT 16/16 A3008 RMK A01 T01580158  RH  100%=      5-min Rain = 0
KME1 161026Z 23000KT 16/16 A3008 RMK A01 T01580158  RH  100%=      5-min Rain = 0
KME1 161027Z 26001KT 16/16 A3008 RMK A01 T01580158  RH  100%=      5-min Rain = 0
KME1 161028Z 26000KT 16/16 A3008 RMK A01 T01590159  RH  100%=      5-min Rain = 0
KME1 161029Z 00000KT 16/16 A3008 RMK A01 T01590159  RH  100%=      5-min Rain = 0
KME1 161030Z 00000KT 16/16 A3008 RMK A01 T01590159  RH  100%=      5-min Rain = 0
KME1 161031Z 00000KT 16/16 A3008 RMK A01 T01590160  RH  100%=      5-min Rain = 0
KME1 161032Z 00000KT 16/16 A3008 RMK A01 T01590159  RH  100%=      5-min Rain = 0
KME1 161033Z 00000KT 16/16 A3008 RMK A01 T01600160  RH  100%=      5-min Rain = 0
KME1 161034Z 00000KT 16/16 A3008 RMK A01 T01600160  RH  100%=      5-min Rain = 0
KME1 161035Z 00000KT 16/16 A3008 RMK A01 T01600160  RH  100%=      5-min Rain = 0
KME1 161036Z 00000KT 16/16 A3008 RMK A01 T01600160  RH  100%=      5-min Rain = 0
KME1 161037Z 00000KT 16/16 A3008 RMK A01 T01600160  RH  100%=      5-min Rain = 0
KME1 161038Z 00000KT 16/16 A3008 RMK A01 T01600160  RH  100%=      5-min Rain = 0
KME1 161039Z 00000KT 16/16 A3008 RMK A01 T01600160  RH  100%=      5-min Rain = 0
KME1 161040Z 00000KT 16/16 A3008 RMK A01 T01600160  RH  100%=      5-min Rain = 0
KME1 161041Z 00000KT 16/16 A3008 RMK A01 T01600160  RH  100%=      5-min Rain = 0
KME1 161042Z 00000KT 16/16 A3008 RMK A01 T01600160  RH  100%=      5-min Rain = 0
KME1 161043Z 00000KT 16/16 A3008 RMK A01 T01600160  RH  100%=      5-min Rain = 0
KME1 161044Z 00000KT 16/16 A3008 RMK A01 T01600160  RH  100%=      5-min Rain = 0
KME1 161045Z 00000KT 16/16 A3008 RMK A01 T01600160  RH  100%=      5-min Rain = 0
KME1 161046Z 00000KT 16/16 A3008 RMK A01 T01600160  RH  100%=      5-min Rain = 0
KME1 161047Z 00000KT 16/16 A3008 RMK A01 T01610161  RH  100%=      5-min Rain = 0
KME1 161048Z 00000KT 16/16 A3008 RMK A01 T01610161  RH  100%=      5-min Rain = 0
KME1 161049Z 00000KT 16/16 A3008 RMK A01 T01610162  RH  100%=      5-min Rain = 0
KME1 161050Z 00000KT 16/16 A3008 RMK A01 T01610162  RH  100%=      5-min Rain = 0
KME1 161051Z 00000KT 16/16 A3008 RMK A01 T01620162  RH  100%=      5-min Rain = 0
KME1 161052Z 00000KT 16/16 A3008 RMK A01 T01610162  RH  100%=      5-min Rain = 0
KME1 161053Z 00000KT 16/16 A3008 RMK A01 T01620162  RH  100%=      5-min Rain = 0
KME1 161054Z 00000KT 16/16 A3008 RMK A01 T01610161  RH  100%=      5-min Rain = 0
KME1 161055Z 00000KT 16/16 A3008 RMK A01 T01610161  RH  100%=      5-min Rain = 0
KME1 161056Z 00000KT 16/16 A3008 RMK A01 T01610161  RH  100%=      5-min Rain = 0
KME1 161057Z 00000KT 16/16 A3008 RMK A01 T01610162  RH  100%=      5-min Rain = 0
KME1 161058Z 00000KT 16/16 A3008 RMK A01 T01610161  RH  100%=      5-min Rain = 0
KME1 161059Z 00000KT 16/16 A3008 RMK A01 T01610162  RH  100%=      5-min Rain = 0
KME1 161100Z 20000KT 16/16 A3008 RMK A01 T01610162  RH  100%=      5-min Rain = 0
KME1 161101Z 19001KT 16/16 A3008 RMK A01 T01610162  RH  100%=      5-min Rain = 0
KME1 161102Z 20001KT 16/16 A3008 RMK A01 T01620162  RH  100%=      5-min Rain = 0
KME1 161103Z 20001KT 16/16 A3008 RMK A01 T01620162  RH  100%=      5-min Rain = 0
KME1 161104Z 21001KT 16/16 A3008 RMK A01 T01620162  RH  100%=      5-min Rain = 0
KME1 161105Z 21001KT 16/16 A3008 RMK A01 T01620162  RH  100%=      5-min Rain = 0
KME1 161106Z 21001KT 16/16 A3008 RMK A01 T01620162  RH  100%=      5-min Rain = 0
KME1 161107Z 21001KT 16/16 A3008 RMK A01 T01630163  RH  100%=      5-min Rain = 0
KME1 161108Z 21001KT 16/16 A3008 RMK A01 T01620163  RH  100%=      5-min Rain = 0
KME1 161109Z 21001KT 16/16 A3008 RMK A01 T01620162  RH  100%=      5-min Rain = 0
KME1 161110Z 21001KT 16/16 A3008 RMK A01 T01630163  RH  100%=      5-min Rain = 0
KME1 161111Z 21001KT 16/16 A3008 RMK A01 T01630163  RH  100%=      5-min Rain = 0
KME1 161112Z 21001KT 16/16 A3008 RMK A01 T01630163  RH  100%=      5-min Rain = 0
KME1 161113Z 21001KT 16/16 A3008 RMK A01 T01630163  RH  100%=      5-min Rain = 0
KME1 161114Z 21001KT 16/16 A3008 RMK A01 T01630163  RH  100%=      5-min Rain = 0
KME1 161115Z 21001KT 16/16 A3008 RMK A01 T01630163  RH  100%=      5-min Rain = 0
KME1 161116Z 21001KT 16/16 A3008 RMK A01 T01630163  RH  100%=      5-min Rain = 0
KME1 161117Z 21002KT 16/16 A3008 RMK A01 T01630163  RH  100%=      5-min Rain = 0
KME1 161118Z 20001KT 16/16 A3008 RMK A01 T01630163  RH  100%=      5-min Rain = 0
KME1 161119Z 20001KT 16/16 A3008 RMK A01 T01630163  RH  100%=      5-min Rain = 0
KME1 161120Z 20001KT 16/16 A3008 RMK A01 T01630163  RH  100%=      5-min Rain = 0
KME1 161121Z 20002KT 16/16 A3008 RMK A01 T01630163  RH  100%=      5-min Rain = 0
KME1 161122Z 20002KT 16/16 A3008 RMK A01 T01630163  RH  100%=      5-min Rain = 0
KME1 161123Z 20002KT 16/16 A3008 RMK A01 T01630163  RH  100%=      5-min Rain = 0
KME1 161124Z 19002KT 16/16 A3008 RMK A01 T01630163  RH  100%=      5-min Rain = 0
KME1 161125Z 19002KT 16/16 A3008 RMK A01 T01630163  RH  100%=      5-min Rain = 0
KME1 161126Z 19002KT 16/16 A3008 RMK A01 T01630163  RH  100%=      5-min Rain = 0
KME1 161127Z 18002KT 16/16 A3008 RMK A01 T01630163  RH  100%=      5-min Rain = 0
KME1 161128Z 18002KT 16/16 A3008 RMK A01 T01630163  RH  100%=      5-min Rain = 0
KME1 161129Z 19002KT 16/16 A3008 RMK A01 T01630163  RH  100%=      5-min Rain = 0
KME1 161130Z 19002KT 16/16 A3008 RMK A01 T01630163  RH  100%=      5-min Rain = 0
KME1 161131Z 19001KT 16/16 A3008 RMK A01 T01630163  RH  100%=      5-min Rain = 0
KME1 161132Z 19001KT 16/16 A3009 RMK A01 T01630163  RH  100%=      5-min Rain = 0
KME1 161133Z 19001KT 16/16 A3009 RMK A01 T01630163  RH  100%=      5-min Rain = 0
KME1 161134Z 19001KT 16/16 A3009 RMK A01 T01630163  RH  100%=      5-min Rain = 0
KME1 161135Z 18001KT 16/16 A3009 RMK A01 T01630163  RH  100%=      5-min Rain = 0
KME1 161136Z 19001KT 16/16 A3009 RMK A01 T01630163  RH  100%=      5-min Rain = 0
KME1 161137Z 19001KT 16/16 A3009 RMK A01 T01630163  RH  100%=      5-min Rain = 0
KME1 161138Z 19001KT 16/16 A3009 RMK A01 T01630163  RH  100%=      5-min Rain = 0
KME1 161139Z 18001KT 16/16 A3009 RMK A01 T01630164  RH  100%=      5-min Rain = 0
KME1 161140Z 17000KT 16/16 A3009 RMK A01 T01640164  RH  100%=      5-min Rain = 0
KME1 161141Z 16000KT 16/16 A3009 RMK A01 T01640164  RH  100%=      5-min Rain = 0
KME1 161142Z 16000KT 16/16 A3009 RMK A01 T01640164  RH  100%=      5-min Rain = 0
KME1 161143Z 00000KT 16/16 A3009 RMK A01 T01640164  RH  100%=      5-min Rain = 0
KME1 161144Z 00000KT 16/16 A3009 RMK A01 T01640164  RH  100%=      5-min Rain = 0
KME1 161145Z 00000KT 16/16 A3009 RMK A01 T01640164  RH  100%=      5-min Rain = 0
KME1 161146Z 20000KT 16/16 A3009 RMK A01 T01640164  RH  100%=      5-min Rain = 0
KME1 161147Z 20001KT 16/16 A3009 RMK A01 T01640164  RH  100%=      5-min Rain = 0
KME1 161148Z 20001KT 16/16 A3009 RMK A01 T01640164  RH  100%=      5-min Rain = 0
KME1 161149Z 20001KT 16/16 A3009 RMK A01 T01640164  RH  100%=      5-min Rain = 0
KME1 161150Z 20001KT 16/16 A3009 RMK A01 T01640164  RH  100%=      5-min Rain = 0
KME1 161151Z 20001KT 16/16 A3009 RMK A01 T01640164  RH  100%=      5-min Rain = 0
KME1 161152Z 20001KT 16/16 A3009 RMK A01 T01640164  RH  100%=      5-min Rain = 0
KME1 161153Z 20001KT 17/17 A3009 RMK A01 T01650165  RH  100%=      5-min Rain = 0
KME1 161154Z 20001KT 16/17 A3009 RMK A01 T01640165  RH  100%=      5-min Rain = 0
KME1 161155Z 20001KT 17/17 A3009 RMK A01 T01650165  RH  100%=      5-min Rain = 0
KME1 161156Z 20000KT 16/16 A3009 RMK A01 T01640164  RH  100%=      5-min Rain = 0
KME1 161157Z 00000KT 16/17 A3009 RMK A01 T01640165  RH  100%=      5-min Rain = 0
KME1 161158Z 00000KT 16/17 A3009 RMK A01 T01640165  RH  100%=      5-min Rain = 0
KME1 161159Z 00000KT 17/17 A3009 RMK A01 T01650165  RH  100%=      5-min Rain = 0
KME1 161200Z 00000KT 17/17 A3009 RMK A01 T01650165  RH  100%=      5-min Rain = 0
KME1 161201Z 21001KT 16/17 A3009 RMK A01 T01640165  RH  100%=      5-min Rain = 0
KME1 161202Z 21001KT 17/17 A3009 RMK A01 T01650165  RH  100%=      5-min Rain = 0
KME1 161203Z 21001KT 17/17 A3009 RMK A01 T01650165  RH  100%=      5-min Rain = 0
KME1 161204Z 21002KT 17/17 A3009 RMK A01 T01650165  RH  100%=      5-min Rain = 0
KME1 161205Z 21002KT 17/17 A3009 RMK A01 T01650165  RH  100%=      5-min Rain = 0
KME1 161206Z 20002KT 17/17 A3009 RMK A01 T01650165  RH  100%=      5-min Rain = 0
KME1 161207Z 21002KT 17/17 A3009 RMK A01 T01650165  RH  100%=      5-min Rain = 0
KME1 161208Z 20002KT 17/17 A3009 RMK A01 T01650165  RH  100%=      5-min Rain = 0
KME1 161209Z 21002KT 16/16 A3009 RMK A01 T01640164  RH  100%=      5-min Rain = 0
KME1 161210Z 21002KT 16/17 A3009 RMK A01 T01640165  RH  100%=      5-min Rain = 0
KME1 161211Z 21002KT 16/16 A3009 RMK A01 T01640164  RH  100%=      5-min Rain = 0
KME1 161212Z 21002KT 16/16 A3009 RMK A01 T01640164  RH  100%=      5-min Rain = 0
KME1 161213Z 21002KT 16/16 A3009 RMK A01 T01640164  RH  100%=      5-min Rain = 0
KME1 161214Z 21002KT 16/16 A3009 RMK A01 T01640164  RH  100%=      5-min Rain = 0
KME1 161215Z 21002KT 16/16 A3009 RMK A01 T01640164  RH  100%=      5-min Rain = 0
KME1 161216Z 21002KT 16/16 A3009 RMK A01 T01640164  RH  100%=      5-min Rain = 0
KME1 161217Z 21002KT 16/16 A3009 RMK A01 T01640164  RH  100%=      5-min Rain = 0
KME1 161218Z 21002KT 16/16 A3009 RMK A01 T01640164  RH  100%=      5-min Rain = 0
KME1 161219Z 22002KT 16/16 A3009 RMK A01 T01630163  RH  100%=      5-min Rain = 0
KME1 161220Z 22002KT 16/16 A3009 RMK A01 T01630163  RH  100%=      5-min Rain = 0
KME1 161221Z 22002KT 16/16 A3009 RMK A01 T01630163  RH  100%=      5-min Rain = 0
KME1 161222Z 22002KT 16/16 A3009 RMK A01 T01630163  RH  100%=      5-min Rain = 0
KME1 161223Z 22003KT 16/16 A3009 RMK A01 T01630163  RH  100%=      5-min Rain = 0
KME1 161224Z 22003KT 16/16 A3009 RMK A01 T01630163  RH  100%=      5-min Rain = 0
KME1 161225Z 22003KT 16/16 A3009 RMK A01 T01630164  RH  100%=      5-min Rain = 0
KME1 161226Z 22003KT 16/16 A3009 RMK A01 T01630163  RH  100%=      5-min Rain = 0
KME1 161227Z 21003KT 16/16 A3009 RMK A01 T01630163  RH  100%=      5-min Rain = 0
KME1 161228Z 21003KT 16/16 A3009 RMK A01 T01620163  RH  100%=      5-min Rain = 0
KME1 161229Z 21002KT 16/16 A3009 RMK A01 T01630163  RH  100%=      5-min Rain = 0
KME1 161230Z 21002KT 16/16 A3009 RMK A01 T01630163  RH  100%=      5-min Rain = 0
KME1 161231Z 21002KT 16/16 A3009 RMK A01 T01630163  RH  100%=      5-min Rain = 0
KME1 161232Z 21002KT 16/16 A3009 RMK A01 T01620162  RH  100%=      5-min Rain = 0
KME1 161233Z 21002KT 16/16 A3009 RMK A01 T01620162  RH  100%=      5-min Rain = 0
KME1 161234Z 21002KT 16/16 A3009 RMK A01 T01620162  RH  100%=      5-min Rain = 0
KME1 161235Z 22001KT 16/16 A3009 RMK A01 T01620162  RH  100%=      5-min Rain = 0
KME1 161236Z 23001KT 16/16 A3009 RMK A01 T01620162  RH  100%=      5-min Rain = 0
KME1 161237Z 23001KT 16/16 A3009 RMK A01 T01620162  RH  100%=      5-min Rain = 0
KME1 161238Z 22002KT 16/16 A3009 RMK A01 T01620162  RH  100%=      5-min Rain = 0
KME1 161239Z 22002KT 16/16 A3009 RMK A01 T01620162  RH  100%=      5-min Rain = 0
KME1 161240Z 22002KT 16/16 A3009 RMK A01 T01620162  RH  100%=      5-min Rain = 0
KME1 161241Z 22002KT 16/16 A3009 RMK A01 T01620162  RH  100%=      5-min Rain = 0
KME1 161242Z 21002KT 16/16 A3009 RMK A01 T01620162  RH  100%=      5-min Rain = 0
KME1 161243Z 21001KT 16/16 A3009 RMK A01 T01620162  RH  100%=      5-min Rain = 0
KME1 161244Z 20001KT 16/16 A3009 RMK A01 T01620162  RH  100%=      5-min Rain = 0
KME1 161245Z 20002KT 16/16 A3009 RMK A01 T01620162  RH  100%=      5-min Rain = 0
KME1 161246Z 19002KT 16/16 A3009 RMK A01 T01620162  RH  100%=      5-min Rain = 0
KME1 161247Z 19002KT 16/16 A3009 RMK A01 T01620162  RH  100%=      5-min Rain = 0
KME1 161248Z 19002KT 16/16 A3009 RMK A01 T01620162  RH  100%=      5-min Rain = 0
KME1 161249Z 19002KT 16/16 A3009 RMK A01 T01620163  RH  100%=      5-min Rain = 0
KME1 161250Z 18002KT 16/16 A3009 RMK A01 T01620162  RH  100%=      5-min Rain = 0
KME1 161251Z 18002KT 16/16 A3009 RMK A01 T01620162  RH  100%=      5-min Rain = 0
KME1 161252Z 19002KT 16/16 A3009 RMK A01 T01620162  RH  100%=      5-min Rain = 0
KME1 161253Z 19002KT 16/16 A3009 RMK A01 T01620162  RH  100%=      5-min Rain = 0
KME1 161254Z 20001KT 16/16 A3009 RMK A01 T01620162  RH  100%=      5-min Rain = 0
KME1 161255Z 20002KT 16/16 A3009 RMK A01 T01620162  RH  100%=      5-min Rain = 0
KME1 161256Z 20002KT 16/16 A3009 RMK A01 T01620163  RH  100%=      5-min Rain = 0
KME1 161257Z 20002KT 16/16 A3009 RMK A01 T01620163  RH  100%=      5-min Rain = 0
KME1 161258Z 20002KT 16/16 A3009 RMK A01 T01630163  RH  100%=      5-min Rain = 0
KME1 161259Z 20002KT 16/16 A3009 RMK A01 T01630163  RH  100%=      5-min Rain = 0
KME1 161300Z 20002KT 16/16 A301 RMK A01 T01630163  RH  100%=      5-min Rain = 0
KME1 161301Z 20002KT 16/16 A301 RMK A01 T01630163  RH  100%=      5-min Rain = 0
KME1 161302Z 20002KT 16/16 A301 RMK A01 T01630164  RH  100%=      5-min Rain = 0
KME1 161303Z 21002KT 16/16 A301 RMK A01 T01640164  RH  100%=      5-min Rain = 0
KME1 161304Z 20002KT 16/16 A301 RMK A01 T01640164  RH  100%=      5-min Rain = 0
KME1 161305Z 20002KT 16/16 A301 RMK A01 T01640164  RH  100%=      5-min Rain = 0
KME1 161306Z 20002KT 16/16 A301 RMK A01 T01640164  RH  100%=      5-min Rain = 0
KME1 161307Z 20002KT 16/16 A301 RMK A01 T01640164  RH  100%=      5-min Rain = 0
KME1 161308Z 21002KT 17/17 A301 RMK A01 T01650165  RH  100%=      5-min Rain = 0
KME1 161309Z 21002KT 16/17 A301 RMK A01 T01640165  RH  100%=      5-min Rain = 0
KME1 161310Z 21002KT 17/17 A301 RMK A01 T01650165  RH  100%=      5-min Rain = 0
KME1 161311Z 21002KT 17/17 A301 RMK A01 T01650165  RH  100%=      5-min Rain = 0
KME1 161312Z 21002KT 17/17 A301 RMK A01 T01650165  RH  100%=      5-min Rain = 0
KME1 161313Z 21001KT 17/17 A301 RMK A01 T01650165  RH  100%=      5-min Rain = 0
KME1 161314Z 21001KT 17/17 A301 RMK A01 T01660166  RH  100%=      5-min Rain = 0
KME1 161315Z 23000KT 17/17 A301 RMK A01 T01660166  RH  100%=      5-min Rain = 0
KME1 161316Z 22000KT 17/17 A301 RMK A01 T01670167  RH  100%=      5-min Rain = 0
KME1 161317Z 22000KT 17/17 A301 RMK A01 T01670167  RH  100%=      5-min Rain = 0
KME1 161318Z 00000KT 17/17 A301 RMK A01 T01670168  RH  100%=      5-min Rain = 0
KME1 161319Z 00000KT 17/17 A301 RMK A01 T01680169  RH  100%=      5-min Rain = 0
KME1 161320Z 00000KT 17/17 A301 RMK A01 T01690169  RH  100%=      5-min Rain = 0
KME1 161321Z 00000KT 17/17 A301 RMK A01 T01700170  RH  100%=      5-min Rain = 0
KME1 161322Z 00000KT 17/17 A301 RMK A01 T01700170  RH  100%=      5-min Rain = 0
KME1 161323Z 22000KT 17/17 A301 RMK A01 T01710171  RH  100%=      5-min Rain = 0
KME1 161324Z 22000KT 17/17 A301 RMK A01 T01720172  RH  100%=      5-min Rain = 0
KME1 161325Z 21000KT 17/17 A301 RMK A01 T01720172  RH  100%=      5-min Rain = 0
KME1 161326Z 22001KT 17/17 A301 RMK A01 T01720173  RH  100%=      5-min Rain = 0
KME1 161327Z 22001KT 17/17 A301 RMK A01 T01720173  RH  100%=      5-min Rain = 0
KME1 161328Z 22001KT 17/17 A301 RMK A01 T01730173  RH  100%=      5-min Rain = 0
KME1 161329Z 21001KT 17/17 A301 RMK A01 T01740174  RH  100%=      5-min Rain = 0
KME1 161330Z 19001KT 17/18 A301 RMK A01 T01740175  RH  100%=      5-min Rain = 0
KME1 161331Z 17000KT 18/18 A301 RMK A01 T01750175  RH  100%=      5-min Rain = 0
KME1 161332Z 17001KT 18/18 A301 RMK A01 T01760177  RH  100%=      5-min Rain = 0
KME1 161333Z 16001KT 18/18 A301 RMK A01 T01780178  RH  100%=      5-min Rain = 0
KME1 161334Z 14000KT 18/18 A301 RMK A01 T01790179  RH  100%=      5-min Rain = 0
KME1 161335Z 17000KT 18/18 A301 RMK A01 T01800180  RH  100%=      5-min Rain = 0
KME1 161336Z 17000KT 18/18 A301 RMK A01 T01810181  RH  100%=      5-min Rain = 0
KME1 161337Z 00000KT 18/18 A301 RMK A01 T01830183  RH  100%=      5-min Rain = 0
KME1 161338Z 00000KT 19/19 A301 RMK A01 T01850185  RH  100%=      5-min Rain = 0
KME1 161339Z 00000KT 19/19 A301 RMK A01 T01850185  RH  100%=      5-min Rain = 0
KME1 161340Z 00000KT 19/19 A301 RMK A01 T01870187  RH  100%=      5-min Rain = 0
KME1 161341Z 00000KT 19/19 A301 RMK A01 T01890189  RH  100%=      5-min Rain = 0
KME1 161342Z 22000KT 19/19 A301 RMK A01 T01900186  RH  097%=      5-min Rain = 0
KME1 161343Z 00000KT 19/18 A301 RMK A01 T01890183  RH  096%=      5-min Rain = 0
KME1 161344Z 00000KT 19/18 A301 RMK A01 T01900183  RH  096%=      5-min Rain = 0
KME1 161345Z 00000KT 19/18 A301 RMK A01 T01910184  RH  096%=      5-min Rain = 0
KME1 161346Z 25000KT 19/19 A301 RMK A01 T01920186  RH  096%=      5-min Rain = 0
KME1 161347Z 00000KT 19/19 A301 RMK A01 T01940186  RH  096%=      5-min Rain = 0
KME1 161348Z 00000KT 19/19 A301 RMK A01 T01940185  RH  095%=      5-min Rain = 0
KME1 161349Z 00000KT 19/18 A301 RMK A01 T01940184  RH  094%=      5-min Rain = 0
KME1 161350Z 00000KT 20/19 A301 RMK A01 T01950188  RH  095%=      5-min Rain = 0
KME1 161351Z 10000KT 20/19 A301 RMK A01 T01970186  RH  094%=      5-min Rain = 0
KME1 161352Z 13000KT 20/19 A3011 RMK A01 T01980185  RH  092%=      5-min Rain = 0
KME1 161353Z 13000KT 20/18 A3011 RMK A01 T01990183  RH  091%=      5-min Rain = 0
KME1 161354Z 12000KT 20/18 A3011 RMK A01 T02000183  RH  090%=      5-min Rain = 0
KME1 161355Z 12000KT 20/18 A3011 RMK A01 T02010184  RH  090%=      5-min Rain = 0
KME1 161356Z 00000KT 20/18 A301 RMK A01 T02010183  RH  089%=      5-min Rain = 0
KME1 161357Z 00000KT 20/19 A301 RMK A01 T02020186  RH  090%=      5-min Rain = 0
KME1 161358Z 00000KT 20/18 A301 RMK A01 T02030184  RH  089%=      5-min Rain = 0
KME1 161359Z 00000KT 20/19 A3011 RMK A01 T02040185  RH  089%=      5-min Rain = 0
KME1 161400Z 00000KT 21/19 A3011 RMK A01 T02050185  RH  088%=      5-min Rain = 0
KME1 161401Z 03000KT 21/19 A3011 RMK A01 T02060185  RH  088%=      5-min Rain = 0
KME1 161402Z 04001KT 21/18 A3011 RMK A01 T02070184  RH  087%=      5-min Rain = 0
KME1 161403Z 03001KT 21/18 A3011 RMK A01 T02070184  RH  087%=      5-min Rain = 0
KME1 161404Z 02001KT 21/18 A3011 RMK A01 T02060184  RH  088%=      5-min Rain = 0
KME1 161405Z 01001KT 21/19 A3011 RMK A01 T02060185  RH  088%=      5-min Rain = 0
KME1 161406Z 03001KT 21/19 A3011 RMK A01 T02060186  RH  088%=      5-min Rain = 0
KME1 161407Z 03000KT 21/19 A3011 RMK A01 T02060186  RH  088%=      5-min Rain = 0
KME1 161408Z 00000KT 21/19 A3011 RMK A01 T02060188  RH  089%=      5-min Rain = 0
KME1 161409Z 00000KT 21/19 A3011 RMK A01 T02070188  RH  089%=      5-min Rain = 0
KME1 161410Z 00000KT 21/19 A3011 RMK A01 T02070189  RH  089%=      5-min Rain = 0
KME1 161411Z 00000KT 21/19 A3011 RMK A01 T02080188  RH  088%=      5-min Rain = 0
KME1 161412Z 00000KT 21/19 A3011 RMK A01 T02090187  RH  088%=      5-min Rain = 0
KME1 161413Z 06000KT 21/19 A3011 RMK A01 T02100189  RH  088%=      5-min Rain = 0
KME1 161414Z 08000KT 21/19 A3011 RMK A01 T02110188  RH  087%=      5-min Rain = 0
KME1 161415Z 07000KT 21/19 A3011 RMK A01 T02110187  RH  086%=      5-min Rain = 0
KME1 161416Z 05001KT 21/19 A3011 RMK A01 T02130189  RH  086%=      5-min Rain = 0
KME1 161417Z 00000KT 21/19 A3011 RMK A01 T02130186  RH  085%=      5-min Rain = 0
KME1 161418Z 00000KT 21/19 A3011 RMK A01 T02130185  RH  084%=      5-min Rain = 0
KME1 161419Z 00000KT 21/19 A3011 RMK A01 T02140188  RH  085%=      5-min Rain = 0
KME1 161420Z 36000KT 22/19 A3011 RMK A01 T02150189  RH  085%=      5-min Rain = 0
KME1 161421Z 00001KT 22/19 A3011 RMK A01 T02150189  RH  085%=      5-min Rain = 0
KME1 161422Z 35001KT 22/19 A3011 RMK A01 T02150187  RH  084%=      5-min Rain = 0
KME1 161423Z 35001KT 22/19 A3011 RMK A01 T02160188  RH  084%=      5-min Rain = 0
KME1 161424Z 02000KT 22/19 A3011 RMK A01 T02160187  RH  084%=      5-min Rain = 0
KME1 161425Z 00000KT 22/19 A3011 RMK A01 T02150190  RH  085%=      5-min Rain = 0
KME1 161426Z 02000KT 22/19 A3011 RMK A01 T02150190  RH  085%=      5-min Rain = 0
KME1 161427Z 04000KT 22/19 A3011 RMK A01 T02150188  RH  084%=      5-min Rain = 0
KME1 161428Z 00000KT 22/19 A3011 RMK A01 T02160189  RH  085%=      5-min Rain = 0
KME1 161429Z 00000KT 22/19 A3011 RMK A01 T02170189  RH  084%=      5-min Rain = 0
KME1 161430Z 00000KT 22/19 A3011 RMK A01 T02180188  RH  083%=      5-min Rain = 0
KME1 161431Z 28000KT 22/19 A3011 RMK A01 T02180189  RH  084%=      5-min Rain = 0
KME1 161432Z 32001KT 22/19 A3011 RMK A01 T02190190  RH  084%=      5-min Rain = 0
KME1 161433Z 32000KT 22/19 A3011 RMK A01 T02190189  RH  083%=      5-min Rain = 0
KME1 161434Z 00000KT 22/19 A3011 RMK A01 T02190189  RH  083%=      5-min Rain = 0
KME1 161435Z 00000KT 22/19 A3011 RMK A01 T02190189  RH  083%=      5-min Rain = 0
KME1 161436Z 00000KT 22/19 A3011 RMK A01 T02180190  RH  084%=      5-min Rain = 0
KME1 161437Z 00000KT 22/19 A3011 RMK A01 T02190190  RH  084%=      5-min Rain = 0
KME1 161438Z 00000KT 22/19 A3011 RMK A01 T02190189  RH  083%=      5-min Rain = 0
KME1 161439Z 00000KT 22/19 A3011 RMK A01 T02190190  RH  083%=      5-min Rain = 0
KME1 161440Z 00000KT 22/19 A3011 RMK A01 T02200190  RH  084%=      5-min Rain = 0
KME1 161441Z 25000KT 22/19 A3011 RMK A01 T02190190  RH  083%=      5-min Rain = 0
KME1 161442Z 17001KT 22/19 A3011 RMK A01 T02200191  RH  084%=      5-min Rain = 0
KME1 161443Z 16001KT 22/19 A3011 RMK A01 T02210191  RH  083%=      5-min Rain = 0
KME1 161444Z 15002KT 22/19 A3011 RMK A01 T02210193  RH  084%=      5-min Rain = 0
KME1 161445Z 18001KT 22/19 A3011 RMK A01 T02220191  RH  083%=      5-min Rain = 0
KME1 161446Z 19001KT 22/19 A3011 RMK A01 T02230191  RH  082%=      5-min Rain = 0
KME1 161447Z 20000KT 22/19 A3011 RMK A01 T02230190  RH  081%=      5-min Rain = 0
KME1 161448Z 00000KT 22/19 A3011 RMK A01 T02230190  RH  082%=      5-min Rain = 0
KME1 161449Z 06001KT 22/19 A3011 RMK A01 T02240192  RH  082%=      5-min Rain = 0
KME1 161450Z 06000KT 23/19 A3011 RMK A01 T02250191  RH  081%=      5-min Rain = 0
KME1 161451Z 00000KT 23/19 A3011 RMK A01 T02280193  RH  081%=      5-min Rain = 0
KME1 161452Z 00000KT 23/19 A3011 RMK A01 T02300193  RH  080%=      5-min Rain = 0
KME1 161453Z 00000KT 23/20 A3011 RMK A01 T02330195  RH  079%=      5-min Rain = 0
KME1 161454Z 32000KT 24/19 A3011 RMK A01 T02360193  RH  077%=      5-min Rain = 0
KME1 161455Z 29000KT 24/19 A3012 RMK A01 T02370193  RH  077%=      5-min Rain = 0
KME1 161456Z 25001KT 24/19 A3012 RMK A01 T02370192  RH  076%=      5-min Rain = 0
KME1 161457Z 26000KT 24/19 A3012 RMK A01 T02360194  RH  077%=      5-min Rain = 0
KME1 161458Z 04000KT 24/19 A3012 RMK A01 T02360193  RH  077%=      5-min Rain = 0
KME1 161459Z 09000KT 24/20 A3012 RMK A01 T02380197  RH  078%=      5-min Rain = 0
KME1 161500Z 16000KT 24/20 A3012 RMK A01 T02400197  RH  077%=      5-min Rain = 0
KME1 161501Z 08001KT 24/20 A3012 RMK A01 T02410197  RH  076%=      5-min Rain = 0
KME1 161502Z 11002KT 24/20 A3012 RMK A01 T02420198  RH  076%=      5-min Rain = 0
KME1 161503Z 09003KT 24/20 A3012 RMK A01 T02410195  RH  075%=      5-min Rain = 0
KME1 161504Z 10003KT 24/19 A3012 RMK A01 T02390194  RH  076%=      5-min Rain = 0
KME1 161505Z 10003KT 24/20 A3012 RMK A01 T02370195  RH  077%=      5-min Rain = 0
KME1 161506Z 10003KT 24/20 A3012 RMK A01 T02360196  RH  078%=      5-min Rain = 0
KME1 161507Z 08004KT 23/19 A3012 RMK A01 T02340194  RH  078%=      5-min Rain = 0
KME1 161508Z 09004KT 23/19 A3012 RMK A01 T02310193  RH  079%=      5-min Rain = 0
KME1 161509Z 10003KT 23/19 A3012 RMK A01 T02280191  RH  080%=      5-min Rain = 0
KME1 161510Z 10002KT 23/19 A3012 RMK A01 T02250191  RH  081%=      5-min Rain = 0
KME1 161511Z 05001KT 22/19 A3012 RMK A01 T02240194  RH  083%=      5-min Rain = 0
KME1 161512Z 05000KT 22/20 A3012 RMK A01 T02240196  RH  084%=      5-min Rain = 0
KME1 161513Z 06002KT 23/20 A3012 RMK A01 T02250198  RH  085%=      5-min Rain = 0
KME1 161514Z 07003KT 23/20 A3013 RMK A01 T02260197  RH  084%=      5-min Rain = 0
KME1 161515Z 06002KT 23/20 A3013 RMK A01 T02270197  RH  083%=      5-min Rain = 0
KME1 161516Z 06002KT 23/20 A3013 RMK A01 T02280197  RH  083%=      5-min Rain = 0
KME1 161517Z 07003KT 23/20 A3013 RMK A01 T02300198  RH  082%=      5-min Rain = 0
KME1 161518Z 08002KT 23/20 A3013 RMK A01 T02310196  RH  081%=      5-min Rain = 0
KME1 161519Z 08001KT 23/20 A3013 RMK A01 T02330197  RH  080%=      5-min Rain = 0
KME1 161520Z 03001KT 23/20 A3013 RMK A01 T02340197  RH  080%=      5-min Rain = 0
KME1 161521Z 06002KT 24/20 A3013 RMK A01 T02350196  RH  079%=      5-min Rain = 0
KME1 161522Z 08001KT 24/20 A3013 RMK A01 T02360197  RH  079%=      5-min Rain = 0
KME1 161523Z 13001KT 24/20 A3013 RMK A01 T02370195  RH  077%=      5-min Rain = 0
KME1 161524Z 21002KT 24/20 A3013 RMK A01 T02380195  RH  077%=      5-min Rain = 0
KME1 161525Z 21001KT 24/20 A3013 RMK A01 T02390195  RH  077%=      5-min Rain = 0
KME1 161526Z 15001KT 24/20 A3013 RMK A01 T02400199  RH  078%=      5-min Rain = 0
KME1 161527Z 18003KT 24/20 A3013 RMK A01 T02420197  RH  076%=      5-min Rain = 0
KME1 161528Z 19002KT 24/20 A3013 RMK A01 T02420197  RH  076%=      5-min Rain = 0
KME1 161529Z 17002KT 24/20 A3013 RMK A01 T02420196  RH  075%=      5-min Rain = 0
KME1 161530Z 21001KT 24/20 A3013 RMK A01 T02420195  RH  075%=      5-min Rain = 0
KME1 161531Z 24002KT 24/20 A3013 RMK A01 T02410196  RH  076%=      5-min Rain = 0
KME1 161532Z 13001KT 24/20 A3013 RMK A01 T02400198  RH  077%=      5-min Rain = 0
KME1 161533Z 13003KT 24/20 A3013 RMK A01 T02410198  RH  077%=      5-min Rain = 0
KME1 161534Z 12003KT 24/20 A3013 RMK A01 T02420197  RH  076%=      5-min Rain = 0
KME1 161535Z 12001KT 24/20 A3013 RMK A01 T02420197  RH  076%=      5-min Rain = 0
KME1 161536Z 20001KT 24/20 A3013 RMK A01 T02430196  RH  075%=      5-min Rain = 0
KME1 161537Z 12002KT 24/20 A3013 RMK A01 T02440199  RH  076%=      5-min Rain = 0
KME1 161538Z 11002KT 25/20 A3013 RMK A01 T02460197  RH  074%=      5-min Rain = 0
KME1 161539Z 16002KT 25/20 A3013 RMK A01 T02470198  RH  074%=      5-min Rain = 0
KME1 161540Z 16002KT 25/20 A3013 RMK A01 T02470196  RH  073%=      5-min Rain = 0
KME1 161541Z 17002KT 25/20 A3013 RMK A01 T02470197  RH  074%=      5-min Rain = 0
KME1 161542Z 14002KT 25/20 A3013 RMK A01 T02470198  RH  074%=      5-min Rain = 0
KME1 161543Z 13004KT 25/20 A3013 RMK A01 T02470198  RH  074%=      5-min Rain = 0
KME1 161544Z 13005KT 25/20 A3013 RMK A01 T02480199  RH  074%=      5-min Rain = 0
KME1 161545Z 14003KT 25/20 A3013 RMK A01 T02480197  RH  074%=      5-min Rain = 0
KME1 161546Z 13002KT 25/20 A3013 RMK A01 T02480199  RH  074%=      5-min Rain = 0
KME1 161547Z 12002KT 25/20 A3013 RMK A01 T02480198  RH  074%=      5-min Rain = 0
KME1 161548Z 13002KT 25/20 A3013 RMK A01 T02490198  RH  073%=      5-min Rain = 0
KME1 161549Z 13001KT 25/20 A3013 RMK A01 T02500197  RH  073%=      5-min Rain = 0
KME1 161550Z 16001KT 25/20 A3013 RMK A01 T02500197  RH  072%=      5-min Rain = 0
KME1 161551Z 18003KT 25/20 A3013 RMK A01 T02520199  RH  072%=      5-min Rain = 0
KME1 161552Z 18002KT 25/20 A3013 RMK A01 T02520198  RH  072%=      5-min Rain = 0
KME1 161553Z 18002KT 25/20 A3013 RMK A01 T02520198  RH  072%=      5-min Rain = 0
KME1 161554Z 18004KT 25/20 A3013 RMK A01 T02530199  RH  072%=      5-min Rain = 0
KME1 161555Z 20004KT 25/20 A3013 RMK A01 T02530199  RH  072%=      5-min Rain = 0
KME1 161556Z 19004KT 25/20 A3013 RMK A01 T02530201  RH  073%=      5-min Rain = 0
KME1 161557Z 18005KT 25/20 A3013 RMK A01 T02530201  RH  073%=      5-min Rain = 0
KME1 161558Z 17004KT 25/20 A3013 RMK A01 T02530199  RH  072%=      5-min Rain = 0
KME1 161559Z 15004KT 25/20 A3013 RMK A01 T02530201  RH  073%=      5-min Rain = 0
KME1 161600Z 14003KT 25/20 A3013 RMK A01 T02540202  RH  073%=      5-min Rain = 0
KME1 161601Z 16002KT 26/20 A3013 RMK A01 T02550201  RH  072%=      5-min Rain = 0
KME1 161602Z 14001KT 26/20 A3013 RMK A01 T02570202  RH  072%=      5-min Rain = 0
KME1 161603Z 14002KT 26/20 A3013 RMK A01 T02590202  RH  071%=      5-min Rain = 0
KME1 161604Z 18004KT 26/20 A3013 RMK A01 T02610201  RH  070%=      5-min Rain = 0
KME1 161605Z 19004KT 26/20 A3013 RMK A01 T02600201  RH  070%=      5-min Rain = 0
KME1 161606Z 18003KT 26/20 A3013 RMK A01 T02590201  RH  070%=      5-min Rain = 0
KME1 161607Z 16003KT 26/20 A3013 RMK A01 T02590202  RH  071%=      5-min Rain = 0
KME1 161608Z 14002KT 26/20 A3013 RMK A01 T02600198  RH  069%=      5-min Rain = 0
KME1 161609Z 14001KT 26/20 A3013 RMK A01 T02580198  RH  069%=      5-min Rain = 0
KME1 161610Z 15002KT 26/20 A3013 RMK A01 T02580199  RH  070%=      5-min Rain = 0
KME1 161611Z 18003KT 26/20 A3013 RMK A01 T02580201  RH  071%=      5-min Rain = 0
KME1 161612Z 18004KT 26/20 A3013 RMK A01 T02580202  RH  071%=      5-min Rain = 0
KME1 161613Z 17005KT 26/20 A3013 RMK A01 T02600202  RH  070%=      5-min Rain = 0
KME1 161614Z 18005KT 26/20 A3013 RMK A01 T02610201  RH  070%=      5-min Rain = 0
KME1 161615Z 19006KT 26/20 A3013 RMK A01 T02610200  RH  069%=      5-min Rain = 0
KME1 161616Z 20004KT 26/20 A3013 RMK A01 T02610200  RH  069%=      5-min Rain = 0
KME1 161617Z 21003KT 26/20 A3013 RMK A01 T02600200  RH  070%=      5-min Rain = 0
KME1 161618Z 21004KT 26/20 A3013 RMK A01 T02600202  RH  070%=      5-min Rain = 0
KME1 161619Z 21004KT 26/20 A3013 RMK A01 T02610201  RH  069%=      5-min Rain = 0
KME1 161620Z 19003KT 26/20 A3013 RMK A01 T02610200  RH  069%=      5-min Rain = 0
KME1 161621Z 19003KT 26/20 A3013 RMK A01 T02590198  RH  069%=      5-min Rain = 0
KME1 161622Z 19002KT 26/20 A3013 RMK A01 T02570200  RH  071%=      5-min Rain = 0
KME1 161623Z 20001KT 26/20 A3013 RMK A01 T02570201  RH  071%=      5-min Rain = 0
KME1 161624Z 21004KT 26/20 A3013 RMK A01 T02570198  RH  070%=      5-min Rain = 0
KME1 161625Z 21003KT 26/20 A3013 RMK A01 T02570199  RH  070%=      5-min Rain = 0
KME1 161626Z 19003KT 26/20 A3013 RMK A01 T02560199  RH  071%=      5-min Rain = 0
KME1 161627Z 18002KT 26/20 A3013 RMK A01 T02560199  RH  071%=      5-min Rain = 0
KME1 161628Z 14003KT 26/20 A3013 RMK A01 T02560199  RH  071%=      5-min Rain = 0
KME1 161629Z 15002KT 26/20 A3013 RMK A01 T02570199  RH  070%=      5-min Rain = 0
KME1 161630Z 16001KT 26/20 A3013 RMK A01 T02560199  RH  071%=      5-min Rain = 0
KME1 161631Z 19002KT 26/20 A3012 RMK A01 T02570199  RH  070%=      5-min Rain = 0
KME1 161632Z 15002KT 26/20 A3012 RMK A01 T02590198  RH  069%=      5-min Rain = 0
KME1 161633Z 14003KT 26/20 A3012 RMK A01 T02600198  RH  069%=      5-min Rain = 0
KME1 161634Z 11003KT 26/20 A3012 RMK A01 T02610200  RH  069%=      5-min Rain = 0
KME1 161635Z 16004KT 26/20 A3012 RMK A01 T02620196  RH  067%=      5-min Rain = 0
KME1 161636Z 17005KT 26/20 A3012 RMK A01 T02610198  RH  068%=      5-min Rain = 0
KME1 161637Z 15003KT 26/20 A3012 RMK A01 T02600196  RH  068%=      5-min Rain = 0
KME1 161638Z 14004KT 26/20 A3012 RMK A01 T02610198  RH  068%=      5-min Rain = 0
KME1 161639Z 14004KT 26/20 A3012 RMK A01 T02630197  RH  067%=      5-min Rain = 0
KME1 161640Z 13004KT 26/20 A3012 RMK A01 T02640200  RH  068%=      5-min Rain = 0
KME1 161641Z 17004KT 27/20 A3012 RMK A01 T02670198  RH  066%=      5-min Rain = 0
KME1 161642Z 16004KT 27/20 A3012 RMK A01 T02680198  RH  066%=      5-min Rain = 0
KME1 161643Z 15005KT 27/20 A3012 RMK A01 T02690200  RH  066%=      5-min Rain = 0
KME1 161644Z 15006KT 27/20 A3012 RMK A01 T02700199  RH  065%=      5-min Rain = 0
KME1 161645Z 13003KT 27/20 A3012 RMK A01 T02700197  RH  065%=      5-min Rain = 0
KME1 161646Z 09002KT 27/19 A3012 RMK A01 T02680193  RH  064%=      5-min Rain = 0
KME1 161647Z 14003KT 27/20 A3012 RMK A01 T02660195  RH  065%=      5-min Rain = 0
KME1 161648Z 15004KT 27/20 A3012 RMK A01 T02690198  RH  065%=      5-min Rain = 0
KME1 161649Z 15003KT 27/19 A3012 RMK A01 T02720193  RH  062%=      5-min Rain = 0
KME1 161650Z 14001KT 27/19 A3012 RMK A01 T02730191  RH  061%=      5-min Rain = 0
KME1 161651Z 15001KT 27/19 A3012 RMK A01 T02740193  RH  061%=      5-min Rain = 0
KME1 161652Z 12003KT 28/19 A3012 RMK A01 T02760194  RH  061%=      5-min Rain = 0
KME1 161653Z 16003KT 28/19 A3012 RMK A01 T02770192  RH  060%=      5-min Rain = 0
KME1 161654Z 22003KT 28/19 A3012 RMK A01 T02770187  RH  058%=      5-min Rain = 0
KME1 161655Z 20002KT 28/19 A3012 RMK A01 T02780185  RH  057%=      5-min Rain = 0
KME1 161656Z 24001KT 28/19 A3012 RMK A01 T02780189  RH  058%=      5-min Rain = 0
KME1 161657Z 18001KT 28/19 A3012 RMK A01 T02790190  RH  058%=      5-min Rain = 0
KME1 161658Z 16004KT 28/19 A3012 RMK A01 T02810192  RH  059%=      5-min Rain = 0
KME1 161659Z 17004KT 28/19 A3012 RMK A01 T02820192  RH  058%=      5-min Rain = 0
KME1 161700Z 17004KT 28/19 A3012 RMK A01 T02820193  RH  058%=      5-min Rain = 0
KME1 161701Z 18005KT 28/19 A3012 RMK A01 T02820185  RH  056%=      5-min Rain = 0
KME1 161702Z 16004KT 28/18 A3012 RMK A01 T02800178  RH  054%=      5-min Rain = 0
KME1 161703Z 15003KT 28/18 A3012 RMK A01 T02790175  RH  053%=      5-min Rain = 0
KME1 161704Z 13002KT 28/17 A3012 RMK A01 T02790173  RH  052%=      5-min Rain = 0
KME1 161705Z 09001KT 28/17 A3012 RMK A01 T02790173  RH  052%=      5-min Rain = 0
KME1 161706Z 14000KT 28/17 A3012 RMK A01 T02800170  RH  051%=      5-min Rain = 0
KME1 161707Z 17000KT 28/17 A3012 RMK A01 T02810170  RH  051%=      5-min Rain = 0
KME1 161708Z 00000KT 28/17 A3012 RMK A01 T02820170  RH  050%=      5-min Rain = 0
KME1 161709Z 13000KT 28/18 A3012 RMK A01 T02840175  RH  052%=      5-min Rain = 0
KME1 161710Z 15002KT 29/18 A3012 RMK A01 T02870179  RH  052%=      5-min Rain = 0
KME1 161711Z 15003KT 29/18 A3012 RMK A01 T02890176  RH  051%=      5-min Rain = 0
KME1 161712Z 14003KT 29/17 A3012 RMK A01 T02880167  RH  048%=      5-min Rain = 0
KME1 161713Z 16003KT 29/17 A3012 RMK A01 T02860169  RH  049%=      5-min Rain = 0
KME1 161714Z 14003KT 29/17 A3012 RMK A01 T02850168  RH  049%=      5-min Rain = 0
KME1 161715Z 15002KT 28/17 A3012 RMK A01 T02840169  RH  050%=      5-min Rain = 0
KME1 161716Z 15001KT 28/17 A3012 RMK A01 T02840172  RH  051%=      5-min Rain = 0
KME1 161717Z 13004KT 28/17 A3012 RMK A01 T02840173  RH  051%=      5-min Rain = 0
KME1 161718Z 14004KT 28/18 A3012 RMK A01 T02840179  RH  053%=      5-min Rain = 0
KME1 161719Z 16004KT 28/17 A3012 RMK A01 T02840172  RH  051%=      5-min Rain = 0
KME1 161720Z 19003KT 28/17 A3012 RMK A01 T02830170  RH  050%=      5-min Rain = 0
KME1 161721Z 18003KT 28/17 A3012 RMK A01 T02820171  RH  051%=      5-min Rain = 0
KME1 161722Z 18004KT 28/17 A3011 RMK A01 T02810169  RH  051%=      5-min Rain = 0
KME1 161723Z 15003KT 28/17 A3011 RMK A01 T02820168  RH  050%=      5-min Rain = 0
KME1 161724Z 12002KT 28/17 A3011 RMK A01 T02820170  RH  051%=      5-min Rain = 0
KME1 161725Z 16002KT 28/17 A3011 RMK A01 T02820170  RH  051%=      5-min Rain = 0
KME1 161726Z 15003KT 28/17 A3011 RMK A01 T02830172  RH  051%=      5-min Rain = 0
KME1 161727Z 13003KT 29/17 A3011 RMK A01 T02850173  RH  051%=      5-min Rain = 0
KME1 161728Z 12004KT 29/17 A3011 RMK A01 T02860174  RH  051%=      5-min Rain = 0
KME1 161729Z 14003KT 29/17 A3011 RMK A01 T02860172  RH  050%=      5-min Rain = 0
KME1 161730Z 13002KT 29/17 A3011 RMK A01 T02850172  RH  050%=      5-min Rain = 0
KME1 161731Z 20002KT 29/17 A3011 RMK A01 T02850172  RH  050%=      5-min Rain = 0
KME1 161732Z 19002KT 29/17 A3011 RMK A01 T02860172  RH  050%=      5-min Rain = 0
KME1 161733Z 17001KT 29/17 A3011 RMK A01 T02870172  RH  050%=      5-min Rain = 0
KME1 161734Z 35002KT 29/18 A3011 RMK A01 T02890175  RH  050%=      5-min Rain = 0
KME1 161735Z 35003KT 29/17 A3011 RMK A01 T02910165  RH  047%=      5-min Rain = 0
KME1 161736Z 34003KT 29/16 A3011 RMK A01 T02900161  RH  046%=      5-min Rain = 0
KME1 161737Z 02003KT 29/16 A3011 RMK A01 T02880160  RH  046%=      5-min Rain = 0
KME1 161738Z 05003KT 29/16 A3011 RMK A01 T02850158  RH  046%=      5-min Rain = 0
KME1 161739Z 07002KT 28/16 A3011 RMK A01 T02840163  RH  048%=      5-min Rain = 0
KME1 161740Z 06004KT 28/16 A3011 RMK A01 T02840163  RH  048%=      5-min Rain = 0
KME1 161741Z 08005KT 29/17 A3011 RMK A01 T02850167  RH  049%=      5-min Rain = 0
KME1 161742Z 08003KT 29/17 A3011 RMK A01 T02870168  RH  049%=      5-min Rain = 0
KME1 161743Z 10003KT 29/16 A3011 RMK A01 T02890164  RH  047%=      5-min Rain = 0
KME1 161744Z 05005KT 29/17 A3011 RMK A01 T02900166  RH  047%=      5-min Rain = 0
KME1 161745Z 06005KT 29/16 A3011 RMK A01 T02900163  RH  046%=      5-min Rain = 0
KME1 161746Z 07006KT 29/16 A3011 RMK A01 T02880160  RH  046%=      5-min Rain = 0
KME1 161747Z 07005KT 29/16 A3011 RMK A01 T02850158  RH  046%=      5-min Rain = 0
KME1 161748Z 06004KT 29/16 A3011 RMK A01 T02850155  RH  045%=      5-min Rain = 0
KME1 161749Z 09004KT 29/16 A3011 RMK A01 T02850157  RH  046%=      5-min Rain = 0
KME1 161750Z 11004KT 29/16 A3011 RMK A01 T02860157  RH  046%=      5-min Rain = 0
KME1 161751Z 09004KT 29/16 A3011 RMK A01 T02860158  RH  046%=      5-min Rain = 0
KME1 161752Z 09006KT 29/16 A3011 RMK A01 T02860159  RH  046%=      5-min Rain = 0
KME1 161753Z 11005KT 29/16 A3011 RMK A01 T02860162  RH  047%=      5-min Rain = 0
KME1 161754Z 12003KT 29/16 A301 RMK A01 T02870161  RH  047%=      5-min Rain = 0
KME1 161755Z 07005KT 29/16 A301 RMK A01 T02880155  RH  044%=      5-min Rain = 0
KME1 161756Z 05002KT 29/16 A301 RMK A01 T02860157  RH  045%=      5-min Rain = 0
KME1 161757Z 03000KT 28/16 A301 RMK A01 T02840157  RH  046%=      5-min Rain = 0
KME1 161758Z 11003KT 29/16 A301 RMK A01 T02850162  RH  047%=      5-min Rain = 0
KME1 161759Z 08002KT 29/16 A301 RMK A01 T02870160  RH  046%=      5-min Rain = 0
KME1 161800Z 11002KT 29/16 A301 RMK A01 T02860160  RH  046%=      5-min Rain = 0
KME1 161801Z 09006KT 29/16 A301 RMK A01 T02870162  RH  047%=      5-min Rain = 0
KME1 161802Z 12006KT 29/16 A301 RMK A01 T02880160  RH  046%=      5-min Rain = 0
KME1 161803Z 12007KT 29/16 A301 RMK A01 T02870160  RH  046%=      5-min Rain = 0
KME1 161804Z 14006KT 29/16 A301 RMK A01 T02870156  RH  045%=      5-min Rain = 0
KME1 161805Z 12005KT 29/15 A301 RMK A01 T02860152  RH  044%=      5-min Rain = 0
KME1 161806Z 13003KT 28/16 A301 RMK A01 T02840155  RH  045%=      5-min Rain = 0
KME1 161807Z 11001KT 28/16 A301 RMK A01 T02840158  RH  046%=      5-min Rain = 0
KME1 161808Z 08003KT 28/16 A301 RMK A01 T02840156  RH  046%=      5-min Rain = 0
KME1 161809Z 04001KT 29/16 A301 RMK A01 T02850160  RH  047%=      5-min Rain = 0
KME1 161810Z 07004KT 29/16 A301 RMK A01 T02860159  RH  046%=      5-min Rain = 0
KME1 161811Z 09002KT 28/15 A301 RMK A01 T02840151  RH  044%=      5-min Rain = 0
KME1 161812Z 12004KT 28/16 A301 RMK A01 T02830155  RH  046%=      5-min Rain = 0
KME1 161813Z 12003KT 28/16 A301 RMK A01 T02830156  RH  046%=      5-min Rain = 0
KME1 161814Z 09002KT 28/15 A301 RMK A01 T02830152  RH  045%=      5-min Rain = 0
KME1 161815Z 05003KT 28/16 A301 RMK A01 T02830158  RH  046%=      5-min Rain = 0
KME1 161816Z 04005KT 28/15 A301 RMK A01 T02840154  RH  045%=      5-min Rain = 0
KME1 161817Z 08006KT 29/15 A301 RMK A01 T02850152  RH  044%=      5-min Rain = 0
KME1 161818Z 09005KT 29/15 A301 RMK A01 T02850151  RH  044%=      5-min Rain = 0
KME1 161819Z 09004KT 29/15 A301 RMK A01 T02850150  RH  044%=      5-min Rain = 0
KME1 161820Z 08004KT 29/16 A301 RMK A01 T02860155  RH  045%=      5-min Rain = 0
KME1 161821Z 08004KT 29/15 A301 RMK A01 T02870152  RH  044%=      5-min Rain = 0
KME1 161822Z 04006KT 29/15 A301 RMK A01 T02880151  RH  043%=      5-min Rain = 0
KME1 161823Z 02007KT 29/16 A301 RMK A01 T02910159  RH  045%=      5-min Rain = 0
KME1 161824Z 01005KT 29/16 A301 RMK A01 T02920156  RH  044%=      5-min Rain = 0
KME1 161825Z 01006KT 29/16 A3009 RMK A01 T02920158  RH  044%=      5-min Rain = 0
KME1 161826Z 04008KT 29/16 A3009 RMK A01 T02920157  RH  044%=      5-min Rain = 0
KME1 161827Z 06004KT 29/16 A3009 RMK A01 T02900155  RH  044%=      5-min Rain = 0
KME1 161828Z 07003KT 29/15 A3009 RMK A01 T02890153  RH  043%=      5-min Rain = 0
KME1 161829Z 09003KT 29/15 A3009 RMK A01 T02890149  RH  042%=      5-min Rain = 0
KME1 161830Z 10003KT 29/15 A3009 RMK A01 T02890147  RH  042%=      5-min Rain = 0
KME1 161831Z 16005KT 29/16 A3009 RMK A01 T02920157  RH  044%=      5-min Rain = 0
KME1 161832Z 16003KT 30/16 A3009 RMK A01 T02950156  RH  043%=      5-min Rain = 0
KME1 161833Z 04002KT 30/16 A3009 RMK A01 T02970157  RH  043%=      5-min Rain = 0
KME1 161834Z 03003KT 30/15 A3009 RMK A01 T02960154  RH  042%=      5-min Rain = 0
KME1 161835Z 36002KT 29/15 A3009 RMK A01 T02940148  RH  041%=      5-min Rain = 0
KME1 161836Z 03001KT 29/15 A3009 RMK A01 T02920151  RH  042%=      5-min Rain = 0
KME1 161837Z 01004KT 29/16 A3009 RMK A01 T02920156  RH  044%=      5-min Rain = 0
KME1 161838Z 01007KT 30/15 A3009 RMK A01 T02950153  RH  042%=      5-min Rain = 0
KME1 161839Z 03006KT 30/16 A3009 RMK A01 T02960156  RH  043%=      5-min Rain = 0
KME1 161840Z 02008KT 30/15 A3009 RMK A01 T02970149  RH  041%=      5-min Rain = 0
KME1 161841Z 02007KT 30/14 A3009 RMK A01 T02960142  RH  039%=      5-min Rain = 0
KME1 161842Z 02005KT 29/14 A3009 RMK A01 T02940142  RH  039%=      5-min Rain = 0
KME1 161843Z 02006KT 29/15 A3009 RMK A01 T02930147  RH  041%=      5-min Rain = 0
KME1 161844Z 01007KT 29/15 A3009 RMK A01 T02940147  RH  041%=      5-min Rain = 0
KME1 161845Z 00006KT 29/15 A3009 RMK A01 T02930150  RH  042%=      5-min Rain = 0
KME1 161846Z 36003KT 29/15 A3009 RMK A01 T02920145  RH  041%=      5-min Rain = 0
KME1 161847Z 01004KT 29/15 A3009 RMK A01 T02910150  RH  042%=      5-min Rain = 0
KME1 161848Z 02006KT 29/15 A3009 RMK A01 T02920152  RH  043%=      5-min Rain = 0
KME1 161849Z 01007KT 29/15 A3008 RMK A01 T02940153  RH  042%=      5-min Rain = 0
KME1 161850Z 00008KT 29/15 A3008 RMK A01 T02940151  RH  042%=      5-min Rain = 0
KME1 161851Z 01006KT 29/15 A3008 RMK A01 T02940151  RH  042%=      5-min Rain = 0
KME1 161852Z 01005KT 29/15 A3008 RMK A01 T02940151  RH  042%=      5-min Rain = 0
KME1 161853Z 07007KT 29/16 A3008 RMK A01 T02940155  RH  043%=      5-min Rain = 0
KME1 161854Z 08006KT 30/15 A3008 RMK A01 T02950151  RH  041%=      5-min Rain = 0
KME1 161855Z 09004KT 30/15 A3008 RMK A01 T02950154  RH  042%=      5-min Rain = 0
KME1 161856Z 09004KT 30/15 A3008 RMK A01 T02950152  RH  042%=      5-min Rain = 0
KME1 161857Z 12006KT 30/15 A3008 RMK A01 T02970150  RH  041%=      5-min Rain = 0
KME1 161858Z 08006KT 30/15 A3008 RMK A01 T02990150  RH  040%=      5-min Rain = 0
KME1 161859Z 06005G10KT 30/15 A3008 RMK A01 T03010149  RH  040%=      5-min Rain = 0
KME1 161900Z 06008KT 30/15 A3008 RMK A01 T03020146  RH  039%=      5-min Rain = 0
KME1 161901Z 07006KT 30/14 A3008 RMK A01 T03030144  RH  038%=      5-min Rain = 0
KME1 161902Z 05005KT 30/15 A3008 RMK A01 T03030145  RH  038%=      5-min Rain = 0
KME1 161903Z 05008KT 30/15 A3008 RMK A01 T03040146  RH  038%=      5-min Rain = 0
KME1 161904Z 05005KT 30/14 A3008 RMK A01 T03030141  RH  037%=      5-min Rain = 0
KME1 161905Z 05008KT 30/14 A3008 RMK A01 T03000142  RH  038%=      5-min Rain = 0
KME1 161906Z 04009KT 30/14 A3008 RMK A01 T02990143  RH  039%=      5-min Rain = 0
KME1 161907Z 03006KT 30/14 A3008 RMK A01 T02980137  RH  037%=      5-min Rain = 0
KME1 161908Z 04004KT 30/14 A3008 RMK A01 T02970139  RH  038%=      5-min Rain = 0
KME1 161909Z 06006KT 30/14 A3008 RMK A01 T02960144  RH  039%=      5-min Rain = 0
KME1 161910Z 07005KT 30/14 A3008 RMK A01 T02970139  RH  038%=      5-min Rain = 0
KME1 161911Z 09007KT 30/14 A3008 RMK A01 T02960137  RH  038%=      5-min Rain = 0
KME1 161912Z 09007KT 30/14 A3008 RMK A01 T02960142  RH  039%=      5-min Rain = 0
KME1 161913Z 09008KT 30/14 A3008 RMK A01 T02980138  RH  038%=      5-min Rain = 0
KME1 161914Z 07007KT 30/13 A3008 RMK A01 T02970130  RH  036%=      5-min Rain = 0
KME1 161915Z 07006KT 30/14 A3008 RMK A01 T02960135  RH  037%=      5-min Rain = 0
KME1 161916Z 08006KT 30/14 A3008 RMK A01 T02950139  RH  039%=      5-min Rain = 0
KME1 161917Z 05005KT 29/14 A3008 RMK A01 T02940140  RH  039%=      5-min Rain = 0
KME1 161918Z 05005KT 30/14 A3008 RMK A01 T02950136  RH  038%=      5-min Rain = 0
KME1 161919Z 08005KT 30/14 A3008 RMK A01 T02950136  RH  038%=      5-min Rain = 0
KME1 161920Z 10004KT 30/14 A3008 RMK A01 T02950138  RH  038%=      5-min Rain = 0
KME1 161921Z 09004KT 30/14 A3008 RMK A01 T02960138  RH  038%=      5-min Rain = 0
KME1 161922Z 07003KT 30/14 A3008 RMK A01 T02970144  RH  039%=      5-min Rain = 0
KME1 161923Z 06008KT 30/14 A3008 RMK A01 T02980140  RH  038%=      5-min Rain = 0
KME1 161924Z 06006KT 30/13 A3008 RMK A01 T02980133  RH  036%=      5-min Rain = 0
KME1 161925Z 05003KT 30/13 A3008 RMK A01 T02960132  RH  037%=      5-min Rain = 0
KME1 161926Z 05003KT 30/13 A3008 RMK A01 T02950129  RH  036%=      5-min Rain = 0
KME1 161927Z 08004KT 30/13 A3008 RMK A01 T02950129  RH  036%=      5-min Rain = 0
KME1 161928Z 06003KT 30/13 A3007 RMK A01 T02950127  RH  036%=      5-min Rain = 0
KME1 161929Z 09005KT 30/13 A3007 RMK A01 T02960132  RH  037%=      5-min Rain = 0
KME1 161930Z 11006KT 30/13 A3007 RMK A01 T02980133  RH  036%=      5-min Rain = 0
KME1 161931Z 06005KT 30/14 A3007 RMK A01 T03000137  RH  037%=      5-min Rain = 0
KME1 161932Z 05006KT 30/14 A3007 RMK A01 T03020136  RH  036%=      5-min Rain = 0
KME1 161933Z 05006KT 30/13 A3007 RMK A01 T03030132  RH  035%=      5-min Rain = 0
KME1 161934Z 05005KT 30/13 A3007 RMK A01 T03020134  RH  036%=      5-min Rain = 0
KME1 161935Z 06004KT 30/13 A3007 RMK A01 T03030133  RH  036%=      5-min Rain = 0
KME1 161936Z 05004KT 30/14 A3007 RMK A01 T03020136  RH  036%=      5-min Rain = 0
KME1 161937Z 06002KT 30/14 A3007 RMK A01 T03040136  RH  036%=      5-min Rain = 0
KME1 161938Z 06002KT 30/13 A3007 RMK A01 T03040128  RH  034%=      5-min Rain = 0
KME1 161939Z 03001KT 30/13 A3007 RMK A01 T03010128  RH  034%=      5-min Rain = 0
KME1 161940Z 03005KT 30/13 A3007 RMK A01 T03000131  RH  036%=      5-min Rain = 0
KME1 161941Z 03010KT 30/13 A3007 RMK A01 T03010132  RH  035%=      5-min Rain = 0
KME1 161942Z 03009KT 30/13 A3007 RMK A01 T03020130  RH  035%=      5-min Rain = 0
KME1 161943Z 02006KT 30/13 A3007 RMK A01 T03020131  RH  035%=      5-min Rain = 0
KME1 161944Z 02007KT 30/13 A3007 RMK A01 T03020132  RH  035%=      5-min Rain = 0
KME1 161945Z 04009KT 30/13 A3007 RMK A01 T03010125  RH  034%=      5-min Rain = 0
KME1 161946Z 05010KT 30/12 A3007 RMK A01 T03010122  RH  033%=      5-min Rain = 0
KME1 161947Z 05007KT 30/12 A3007 RMK A01 T03010122  RH  033%=      5-min Rain = 0
KME1 161948Z 02005KT 30/12 A3007 RMK A01 T03010120  RH  033%=      5-min Rain = 0
KME1 161949Z 01003KT 30/12 A3007 RMK A01 T02990122  RH  034%=      5-min Rain = 0
KME1 161950Z 07006KT 30/13 A3007 RMK A01 T03000129  RH  035%=      5-min Rain = 0
KME1 161951Z 06008KT 30/13 A3007 RMK A01 T03040125  RH  033%=      5-min Rain = 0
KME1 161952Z 06006KT 30/11 A3007 RMK A01 T03030112  RH  031%=      5-min Rain = 0
KME1 161953Z 04005KT 30/12 A3007 RMK A01 T03000117  RH  032%=      5-min Rain = 0
KME1 161954Z 02003KT 30/11 A3006 RMK A01 T02980111  RH  031%=      5-min Rain = 0
KME1 161955Z 08003KT 30/12 A3006 RMK A01 T02970121  RH  034%=      5-min Rain = 0
KME1 161956Z 08006KT 30/13 A3006 RMK A01 T02990127  RH  035%=      5-min Rain = 0
KME1 161957Z 08006KT 30/12 A3006 RMK A01 T03010119  RH  033%=      5-min Rain = 0
KME1 161958Z 08005KT 30/13 A3006 RMK A01 T03010126  RH  034%=      5-min Rain = 0
KME1 161959Z 06003KT 30/13 A3006 RMK A01 T03020127  RH  034%=      5-min Rain = 0
KME1 162000Z 05002KT 30/13 A3006 RMK A01 T03030126  RH  034%=      5-min Rain = 0
KME1 162001Z 04002KT 30/13 A3006 RMK A01 T03040125  RH  033%=      5-min Rain = 0
KME1 162002Z 06006KT 30/13 A3006 RMK A01 T03040127  RH  034%=      5-min Rain = 0
KME1 162003Z 05006KT 31/13 A3006 RMK A01 T03050126  RH  033%=      5-min Rain = 0
KME1 162004Z 05003KT 30/12 A3006 RMK A01 T03040122  RH  033%=      5-min Rain = 0
KME1 162005Z 03002KT 30/12 A3006 RMK A01 T03040124  RH  033%=      5-min Rain = 0
KME1 162006Z 06001KT 30/12 A3006 RMK A01 T03040121  RH  032%=      5-min Rain = 0
KME1 162007Z 35001KT 30/12 A3006 RMK A01 T03040123  RH  033%=      5-min Rain = 0
KME1 162008Z 02004KT 30/14 A3006 RMK A01 T03040136  RH  036%=      5-min Rain = 0
KME1 162009Z 04002KT 30/14 A3006 RMK A01 T03040138  RH  036%=      5-min Rain = 0
KME1 162010Z 05003G9KT 31/14 A3006 RMK A01 T03050141  RH  037%=      5-min Rain = 0
KME1 162011Z 07008KT 31/14 A3006 RMK A01 T03050142  RH  037%=      5-min Rain = 0
KME1 162012Z 07008KT 30/14 A3006 RMK A01 T03040142  RH  037%=      5-min Rain = 0
KME1 162013Z 07007KT 30/14 A3006 RMK A01 T03030142  RH  038%=      5-min Rain = 0
KME1 162014Z 10009KT 30/14 A3006 RMK A01 T03020140  RH  037%=      5-min Rain = 0
KME1 162015Z 08007KT 30/14 A3006 RMK A01 T03020142  RH  038%=      5-min Rain = 0
KME1 162016Z 05005KT 30/14 A3006 RMK A01 T03030138  RH  037%=      5-min Rain = 0
KME1 162017Z 09007KT 30/14 A3006 RMK A01 T03020139  RH  037%=      5-min Rain = 0
KME1 162018Z 08007KT 30/14 A3006 RMK A01 T03020138  RH  037%=      5-min Rain = 0
KME1 162019Z 08003KT 30/13 A3006 RMK A01 T03020134  RH  036%=      5-min Rain = 0
KME1 162020Z 10005KT 30/14 A3006 RMK A01 T03010137  RH  037%=      5-min Rain = 0
KME1 162021Z 09005KT 30/14 A3005 RMK A01 T03000138  RH  037%=      5-min Rain = 0
KME1 162022Z 09007KT 30/14 A3005 RMK A01 T03000138  RH  037%=      5-min Rain = 0
KME1 162023Z 08007KT 30/13 A3005 RMK A01 T03020134  RH  036%=      5-min Rain = 0
KME1 162024Z 10007KT 30/14 A3005 RMK A01 T03010135  RH  036%=      5-min Rain = 0
KME1 162025Z 05008KT 30/14 A3005 RMK A01 T03000140  RH  038%=      5-min Rain = 0
KME1 162026Z 05006KT 30/14 A3005 RMK A01 T03010140  RH  037%=      5-min Rain = 0
KME1 162027Z 06003KT 30/14 A3005 RMK A01 T03020142  RH  038%=      5-min Rain = 0
KME1 162028Z 01003KT 30/15 A3005 RMK A01 T03010146  RH  039%=      5-min Rain = 0
KME1 162029Z 00003KT 30/14 A3005 RMK A01 T03020140  RH  037%=      5-min Rain = 0
KME1 162030Z 04002KT 30/14 A3005 RMK A01 T03020138  RH  037%=      5-min Rain = 0
KME1 162031Z 07004KT 30/14 A3005 RMK A01 T03010144  RH  038%=      5-min Rain = 0
KME1 162032Z 08003KT 30/14 A3005 RMK A01 T03010143  RH  038%=      5-min Rain = 0
KME1 162033Z 05004G9KT 30/15 A3005 RMK A01 T02990146  RH  039%=      5-min Rain = 0
KME1 162034Z 05007KT 30/15 A3005 RMK A01 T02990152  RH  041%=      5-min Rain = 0
KME1 162035Z 06005KT 30/15 A3005 RMK A01 T03010151  RH  040%=      5-min Rain = 0
KME1 162036Z 07004KT 30/16 A3005 RMK A01 T03010155  RH  041%=      5-min Rain = 0
KME1 162037Z 08005KT 30/15 A3005 RMK A01 T03020152  RH  040%=      5-min Rain = 0
KME1 162038Z 08006KT 30/15 A3005 RMK A01 T03020152  RH  040%=      5-min Rain = 0
KME1 162039Z 06006KT 30/16 A3005 RMK A01 T03020155  RH  041%=      5-min Rain = 0
KME1 162040Z 07006KT 30/15 A3005 RMK A01 T03040153  RH  040%=      5-min Rain = 0
KME1 162041Z 05003KT 30/15 A3005 RMK A01 T03030147  RH  039%=      5-min Rain = 0
KME1 162042Z 01001KT 30/14 A3005 RMK A01 T03000144  RH  038%=      5-min Rain = 0
KME1 162043Z 00002KT 30/15 A3005 RMK A01 T02990145  RH  039%=      5-min Rain = 0
KME1 162044Z 02002KT 30/15 A3005 RMK A01 T02990147  RH  039%=      5-min Rain = 0
KME1 162045Z 02004KT 30/15 A3005 RMK A01 T03000149  RH  040%=      5-min Rain = 0
KME1 162046Z 04006KT 30/15 A3005 RMK A01 T03020151  RH  040%=      5-min Rain = 0
KME1 162047Z 07005KT 30/15 A3005 RMK A01 T03040151  RH  039%=      5-min Rain = 0
KME1 162048Z 08008KT 31/15 A3005 RMK A01 T03050146  RH  038%=      5-min Rain = 0
KME1 162049Z 08007KT 30/15 A3005 RMK A01 T03040147  RH  039%=      5-min Rain = 0
KME1 162050Z 08007KT 30/15 A3005 RMK A01 T03030145  RH  038%=      5-min Rain = 0
KME1 162051Z 06007KT 30/14 A3005 RMK A01 T03020143  RH  038%=      5-min Rain = 0
KME1 162052Z 05006KT 30/14 A3005 RMK A01 T03000142  RH  038%=      5-min Rain = 0
KME1 162053Z 09006KT 30/15 A3005 RMK A01 T03000145  RH  039%=      5-min Rain = 0
KME1 162054Z 05004KT 30/14 A3005 RMK A01 T03010144  RH  039%=      5-min Rain = 0
KME1 162055Z 07004KT 30/14 A3005 RMK A01 T03010142  RH  038%=      5-min Rain = 0
KME1 162056Z 09004KT 30/14 A3005 RMK A01 T03010143  RH  038%=      5-min Rain = 0
KME1 162057Z 10006KT 30/14 A3004 RMK A01 T03010141  RH  038%=      5-min Rain = 0
KME1 162058Z 11006KT 30/14 A3004 RMK A01 T03010143  RH  038%=      5-min Rain = 0
KME1 162059Z 06006KT 30/15 A3004 RMK A01 T03000145  RH  039%=      5-min Rain = 0
KME1 162100Z 05008KT 30/15 A3004 RMK A01 T03000147  RH  039%=      5-min Rain = 0
KME1 162101Z 05006KT 30/15 A3004 RMK A01 T03000145  RH  039%=      5-min Rain = 0
KME1 162102Z 05007KT 30/14 A3004 RMK A01 T03000144  RH  039%=      5-min Rain = 0
KME1 162103Z 03005KT 30/14 A3004 RMK A01 T02990144  RH  039%=      5-min Rain = 0
KME1 162104Z 02004KT 30/15 A3004 RMK A01 T02990147  RH  039%=      5-min Rain = 0
KME1 162105Z 01008KT 30/15 A3004 RMK A01 T03000145  RH  039%=      5-min Rain = 0
KME1 162106Z 05006KT 30/15 A3004 RMK A01 T03010147  RH  039%=      5-min Rain = 0
KME1 162107Z 06007KT 30/14 A3004 RMK A01 T03020142  RH  038%=      5-min Rain = 0
KME1 162108Z 05005KT 30/14 A3004 RMK A01 T03020141  RH  037%=      5-min Rain = 0
KME1 162109Z 04004KT 30/14 A3004 RMK A01 T03010141  RH  038%=      5-min Rain = 0
KME1 162110Z 06001KT 30/14 A3004 RMK A01 T03000140  RH  037%=      5-min Rain = 0
KME1 162111Z 11005KT 30/14 A3004 RMK A01 T03000142  RH  038%=      5-min Rain = 0
KME1 162112Z 07010KT 30/15 A3004 RMK A01 T03000147  RH  039%=      5-min Rain = 0
KME1 162113Z 06010KT 30/15 A3004 RMK A01 T03010149  RH  040%=      5-min Rain = 0
KME1 162114Z 04010KT 30/15 A3004 RMK A01 T03010149  RH  040%=      5-min Rain = 0
KME1 162115Z 06010KT 30/15 A3004 RMK A01 T03020149  RH  039%=      5-min Rain = 0
KME1 162116Z 06010KT 30/15 A3004 RMK A01 T03020147  RH  039%=      5-min Rain = 0
KME1 162117Z 05008KT 30/15 A3004 RMK A01 T03020145  RH  038%=      5-min Rain = 0
KME1 162118Z 05003KT 30/14 A3004 RMK A01 T03010143  RH  038%=      5-min Rain = 0
KME1 162119Z 06005KT 30/15 A3004 RMK A01 T03010146  RH  039%=      5-min Rain = 0
KME1 162120Z 05005KT 30/14 A3004 RMK A01 T03020139  RH  037%=      5-min Rain = 0
KME1 162121Z 05005KT 30/13 A3004 RMK A01 T03030134  RH  036%=      5-min Rain = 0
KME1 162122Z 06006KT 30/14 A3004 RMK A01 T03020137  RH  037%=      5-min Rain = 0
KME1 162123Z 07005KT 30/14 A3004 RMK A01 T03020136  RH  036%=      5-min Rain = 0
KME1 162124Z 06004KT 30/13 A3004 RMK A01 T03030129  RH  034%=      5-min Rain = 0
KME1 162125Z 00001KT 30/13 A3004 RMK A01 T03030129  RH  034%=      5-min Rain = 0
KME1 162126Z 07004KT 30/13 A3004 RMK A01 T03030133  RH  035%=      5-min Rain = 0
KME1 162127Z 08005KT 30/14 A3004 RMK A01 T03030138  RH  036%=      5-min Rain = 0
KME1 162128Z 07006KT 30/14 A3004 RMK A01 T03030141  RH  037%=      5-min Rain = 0
KME1 162129Z 06006KT 30/14 A3004 RMK A01 T03020142  RH  038%=      5-min Rain = 0
KME1 162130Z 07006KT 30/14 A3004 RMK A01 T03010141  RH  038%=      5-min Rain = 0
KME1 162131Z 06006KT 30/14 A3004 RMK A01 T03000140  RH  038%=      5-min Rain = 0
KME1 162132Z 05005KT 30/14 A3003 RMK A01 T02990143  RH  039%=      5-min Rain = 0
KME1 162133Z 05003KT 30/14 A3003 RMK A01 T03000140  RH  038%=      5-min Rain = 0
KME1 162134Z 04004KT 30/14 A3003 RMK A01 T02990139  RH  037%=      5-min Rain = 0
KME1 162135Z 05004KT 30/14 A3003 RMK A01 T02990142  RH  038%=      5-min Rain = 0
KME1 162136Z 07004KT 30/15 A3003 RMK A01 T03000145  RH  039%=      5-min Rain = 0
KME1 162137Z 09008KT 30/14 A3003 RMK A01 T03020142  RH  038%=      5-min Rain = 0
KME1 162138Z 10006KT 30/14 A3003 RMK A01 T03010139  RH  037%=      5-min Rain = 0
KME1 162139Z 10006KT 30/14 A3003 RMK A01 T03000139  RH  037%=      5-min Rain = 0
KME1 162140Z 12005KT 30/14 A3003 RMK A01 T03010139  RH  037%=      5-min Rain = 0
KME1 162141Z 14004KT 30/14 A3003 RMK A01 T03020135  RH  036%=      5-min Rain = 0
KME1 162142Z 11004KT 30/14 A3003 RMK A01 T03010138  RH  037%=      5-min Rain = 0
KME1 162143Z 12004KT 30/14 A3003 RMK A01 T03010137  RH  037%=      5-min Rain = 0
KME1 162144Z 09006KT 30/14 A3003 RMK A01 T03010135  RH  036%=      5-min Rain = 0
KME1 162145Z 10008KT 30/14 A3003 RMK A01 T03010137  RH  037%=      5-min Rain = 0
KME1 162146Z 07008KT 30/14 A3003 RMK A01 T03000138  RH  037%=      5-min Rain = 0
KME1 162147Z 05008KT 30/14 A3003 RMK A01 T03000137  RH  037%=      5-min Rain = 0
KME1 162148Z 06008KT 30/14 A3003 RMK A01 T03000138  RH  037%=      5-min Rain = 0
KME1 162149Z 04005KT 30/14 A3003 RMK A01 T03000141  RH  038%=      5-min Rain = 0
KME1 162150Z 06005KT 30/14 A3003 RMK A01 T03010140  RH  037%=      5-min Rain = 0
KME1 162151Z 07005KT 30/14 A3003 RMK A01 T03030142  RH  038%=      5-min Rain = 0
KME1 162152Z 06004KT 30/14 A3003 RMK A01 T03040139  RH  036%=      5-min Rain = 0
KME1 162153Z 03006KT 30/14 A3003 RMK A01 T03040143  RH  038%=      5-min Rain = 0
KME1 162154Z 03006KT 30/14 A3003 RMK A01 T03030143  RH  038%=      5-min Rain = 0
KME1 162155Z 02006KT 30/14 A3003 RMK A01 T03020140  RH  037%=      5-min Rain = 0
KME1 162156Z 35005KT 30/14 A3003 RMK A01 T03010137  RH  037%=      5-min Rain = 0
KME1 162157Z 34005KT 30/14 A3003 RMK A01 T03000142  RH  038%=      5-min Rain = 0
KME1 162158Z 35004KT 30/14 A3003 RMK A01 T03010142  RH  038%=      5-min Rain = 0
KME1 162159Z 00003KT 30/14 A3003 RMK A01 T03020141  RH  038%=      5-min Rain = 0
KME1 162200Z 03003KT 30/14 A3003 RMK A01 T03020141  RH  038%=      5-min Rain = 0
KME1 162201Z 08003KT 30/14 A3003 RMK A01 T03020141  RH  038%=      5-min Rain = 0
KME1 162202Z 05006KT 30/15 A3003 RMK A01 T03020147  RH  039%=      5-min Rain = 0
KME1 162203Z 10004KT 30/15 A3003 RMK A01 T03040149  RH  039%=      5-min Rain = 0
KME1 162204Z 08005KT 31/15 A3003 RMK A01 T03050149  RH  039%=      5-min Rain = 0
KME1 162205Z 05006KT 31/15 A3003 RMK A01 T03050148  RH  039%=      5-min Rain = 0
KME1 162206Z 06008KT 30/15 A3003 RMK A01 T03030148  RH  039%=      5-min Rain = 0
KME1 162207Z 07007KT 30/15 A3003 RMK A01 T03020147  RH  039%=      5-min Rain = 0
KME1 162208Z 06006KT 30/15 A3003 RMK A01 T03010146  RH  039%=      5-min Rain = 0
KME1 162209Z 06007KT 30/14 A3003 RMK A01 T03010143  RH  038%=      5-min Rain = 0
KME1 162210Z 06007KT 30/14 A3003 RMK A01 T03000140  RH  038%=      5-min Rain = 0
KME1 162211Z 07006KT 30/14 A3003 RMK A01 T03000142  RH  038%=      5-min Rain = 0
KME1 162212Z 08006KT 30/14 A3003 RMK A01 T03000143  RH  038%=      5-min Rain = 0
KME1 162213Z 06006KT 30/14 A3003 RMK A01 T02990139  RH  037%=      5-min Rain = 0
KME1 162214Z 07006KT 30/14 A3003 RMK A01 T02990138  RH  038%=      5-min Rain = 0
KME1 162215Z 09005KT 30/14 A3003 RMK A01 T02980139  RH  038%=      5-min Rain = 0
KME1 162216Z 10004KT 30/14 A3003 RMK A01 T02990144  RH  039%=      5-min Rain = 0
KME1 162217Z 11004KT 30/14 A3003 RMK A01 T03010144  RH  038%=      5-min Rain = 0
KME1 162218Z 10004KT 30/14 A3003 RMK A01 T03010143  RH  038%=      5-min Rain = 0
KME1 162219Z 10004KT 30/15 A3003 RMK A01 T03020146  RH  039%=      5-min Rain = 0
KME1 162220Z 08006KT 30/15 A3003 RMK A01 T03020147  RH  039%=      5-min Rain = 0
KME1 162221Z 07007KT 30/14 A3003 RMK A01 T03020144  RH  038%=      5-min Rain = 0
KME1 162222Z 07006KT 30/15 A3003 RMK A01 T03000145  RH  039%=      5-min Rain = 0
KME1 162223Z 07006KT 30/14 A3003 RMK A01 T03000144  RH  039%=      5-min Rain = 0
KME1 162224Z 07005KT 30/14 A3003 RMK A01 T02990143  RH  039%=      5-min Rain = 0
KME1 162225Z 07005KT 30/15 A3003 RMK A01 T02980148  RH  040%=      5-min Rain = 0
KME1 162226Z 05008KT 30/15 A3003 RMK A01 T02990149  RH  040%=      5-min Rain = 0
KME1 162227Z 07007KT 30/15 A3003 RMK A01 T02990152  RH  041%=      5-min Rain = 0
KME1 162228Z 05008KT 30/15 A3003 RMK A01 T02990153  RH  041%=      5-min Rain = 0
KME1 162229Z 06006KT 30/15 A3003 RMK A01 T02990151  RH  041%=      5-min Rain = 0
KME1 162230Z 03005KT 30/16 A3003 RMK A01 T02980155  RH  042%=      5-min Rain = 0
KME1 162231Z 04007KT 30/15 A3003 RMK A01 T02980153  RH  041%=      5-min Rain = 0
KME1 162232Z 05005KT 30/15 A3003 RMK A01 T02980150  RH  041%=      5-min Rain = 0
KME1 162233Z 05005KT 30/15 A3003 RMK A01 T02980152  RH  041%=      5-min Rain = 0
KME1 162234Z 06005KT 30/15 A3003 RMK A01 T02980153  RH  041%=      5-min Rain = 0
KME1 162235Z 04005KT 30/15 A3003 RMK A01 T02990153  RH  041%=      5-min Rain = 0
KME1 162236Z 04004KT 30/15 A3003 RMK A01 T02980149  RH  040%=      5-min Rain = 0
KME1 162237Z 09003KT 30/15 A3003 RMK A01 T02980150  RH  041%=      5-min Rain = 0
KME1 162238Z 08004KT 30/15 A3003 RMK A01 T02970150  RH  041%=      5-min Rain = 0
KME1 162239Z 06005KT 30/15 A3003 RMK A01 T02970152  RH  041%=      5-min Rain = 0
KME1 162240Z 06008KT 30/15 A3003 RMK A01 T02960152  RH  041%=      5-min Rain = 0
KME1 162241Z 07009KT 30/15 A3003 RMK A01 T02970154  RH  042%=      5-min Rain = 0
KME1 162242Z 06009KT 30/15 A3003 RMK A01 T02970149  RH  040%=      5-min Rain = 0
KME1 162243Z 06008KT 30/15 A3003 RMK A01 T02980145  RH  039%=      5-min Rain = 0
KME1 162244Z 05008KT 30/14 A3003 RMK A01 T02980144  RH  039%=      5-min Rain = 0
KME1 162245Z 04008KT 30/14 A3003 RMK A01 T02980142  RH  039%=      5-min Rain = 0
KME1 162246Z 05006KT 30/14 A3003 RMK A01 T02980144  RH  039%=      5-min Rain = 0
KME1 162247Z 05007KT 30/15 A3003 RMK A01 T02980145  RH  039%=      5-min Rain = 0
KME1 162248Z 05006KT 30/15 A3003 RMK A01 T02980147  RH  040%=      5-min Rain = 0
KME1 162249Z 04006KT 30/15 A3003 RMK A01 T02980147  RH  040%=      5-min Rain = 0
KME1 162250Z 05008KT 30/15 A3003 RMK A01 T02980148  RH  040%=      5-min Rain = 0
KME1 162251Z 05006KT 30/15 A3003 RMK A01 T02970147  RH  040%=      5-min Rain = 0
KME1 162252Z 05005KT 30/15 A3003 RMK A01 T02970147  RH  040%=      5-min Rain = 0
KME1 162253Z 06004KT 30/15 A3003 RMK A01 T02960149  RH  041%=      5-min Rain = 0
KME1 162254Z 08005KT 30/15 A3003 RMK A01 T02960149  RH  041%=      5-min Rain = 0
KME1 162255Z 06006KT 30/15 A3003 RMK A01 T02960149  RH  041%=      5-min Rain = 0
KME1 162256Z 06008KT 30/15 A3003 RMK A01 T02960150  RH  041%=      5-min Rain = 0
KME1 162257Z 08007KT 30/15 A3003 RMK A01 T02960152  RH  042%=      5-min Rain = 0
KME1 162258Z 08005KT 30/15 A3003 RMK A01 T02950150  RH  041%=      5-min Rain = 0
KME1 162259Z 08004KT 30/15 A3003 RMK A01 T02950151  RH  042%=      5-min Rain = 0
KME1 162300Z 08004KT 29/15 A3003 RMK A01 T02940154  RH  043%=      5-min Rain = 0
KME1 162301Z 08004KT 30/16 A3003 RMK A01 T02950155  RH  043%=      5-min Rain = 0
KME1 162302Z 09006KT 30/15 A3003 RMK A01 T02950154  RH  042%=      5-min Rain = 0
KME1 162303Z 09005KT 30/15 A3003 RMK A01 T02950152  RH  042%=      5-min Rain = 0
KME1 162304Z 10005KT 29/15 A3003 RMK A01 T02940152  RH  042%=      5-min Rain = 0
KME1 162305Z 08004KT 29/16 A3003 RMK A01 T02940155  RH  043%=      5-min Rain = 0
KME1 162306Z 07004KT 29/15 A3003 RMK A01 T02940153  RH  042%=      5-min Rain = 0
KME1 162307Z 10004KT 29/15 A3003 RMK A01 T02940151  RH  042%=      5-min Rain = 0
KME1 162308Z 10005KT 29/15 A3003 RMK A01 T02940148  RH  041%=      5-min Rain = 0
KME1 162309Z 10005KT 29/15 A3003 RMK A01 T02940149  RH  041%=      5-min Rain = 0
KME1 162310Z 09005KT 29/15 A3003 RMK A01 T02930148  RH  041%=      5-min Rain = 0
KME1 162311Z 10004KT 29/15 A3003 RMK A01 T02930151  RH  042%=      5-min Rain = 0
KME1 162312Z 12004KT 29/15 A3003 RMK A01 T02930151  RH  042%=      5-min Rain = 0
KME1 162313Z 12005KT 29/15 A3003 RMK A01 T02930152  RH  042%=      5-min Rain = 0
KME1 162314Z 11005KT 29/15 A3003 RMK A01 T02920151  RH  042%=      5-min Rain = 0
KME1 162315Z 09005KT 29/15 A3003 RMK A01 T02920152  RH  042%=      5-min Rain = 0
KME1 162316Z 07006KT 29/15 A3003 RMK A01 T02920154  RH  043%=      5-min Rain = 0
KME1 162317Z 05006KT 29/15 A3003 RMK A01 T02920152  RH  042%=      5-min Rain = 0
KME1 162318Z 07007KT 29/15 A3003 RMK A01 T02920149  RH  042%=      5-min Rain = 0
KME1 162319Z 07005KT 29/15 A3003 RMK A01 T02920150  RH  042%=      5-min Rain = 0
KME1 162320Z 06004KT 29/15 A3003 RMK A01 T02920151  RH  042%=      5-min Rain = 0
KME1 162321Z 05005KT 29/15 A3003 RMK A01 T02920150  RH  042%=      5-min Rain = 0
KME1 162322Z 05005KT 29/15 A3003 RMK A01 T02920152  RH  042%=      5-min Rain = 0
KME1 162323Z 05005KT 29/15 A3003 RMK A01 T02920152  RH  043%=      5-min Rain = 0
KME1 162324Z 05005KT 29/15 A3003 RMK A01 T02920154  RH  043%=      5-min Rain = 0
KME1 162325Z 06004KT 29/15 A3003 RMK A01 T02920154  RH  043%=      5-min Rain = 0
KME1 162326Z 06005KT 29/16 A3003 RMK A01 T02920156  RH  044%=      5-min Rain = 0
KME1 162327Z 06005KT 29/16 A3003 RMK A01 T02920156  RH  044%=      5-min Rain = 0
KME1 162328Z 06005KT 29/16 A3003 RMK A01 T02910155  RH  043%=      5-min Rain = 0
KME1 162329Z 05006KT 29/16 A3003 RMK A01 T02910155  RH  044%=      5-min Rain = 0
KME1 162330Z 06006KT 29/15 A3003 RMK A01 T02910152  RH  043%=      5-min Rain = 0
KME1 162331Z 06006KT 29/15 A3003 RMK A01 T02900152  RH  043%=      5-min Rain = 0
KME1 162332Z 07007KT 29/15 A3003 RMK A01 T02890152  RH  043%=      5-min Rain = 0
KME1 162333Z 06006KT 29/15 A3003 RMK A01 T02880149  RH  043%=      5-min Rain = 0
KME1 162334Z 07006KT 29/15 A3003 RMK A01 T02880151  RH  043%=      5-min Rain = 0
KME1 162335Z 06006KT 29/15 A3003 RMK A01 T02880153  RH  044%=      5-min Rain = 0
KME1 162336Z 06007KT 29/15 A3003 RMK A01 T02880151  RH  043%=      5-min Rain = 0
KME1 162337Z 06007KT 29/15 A3003 RMK A01 T02880152  RH  044%=      5-min Rain = 0
KME1 162338Z 06006KT 29/15 A3003 RMK A01 T02870153  RH  044%=      5-min Rain = 0
KME1 162339Z 06007KT 29/15 A3003 RMK A01 T02870151  RH  043%=      5-min Rain = 0
KME1 162340Z 06006KT 29/15 A3003 RMK A01 T02870152  RH  044%=      5-min Rain = 0
KME1 162341Z 06006KT 29/15 A3003 RMK A01 T02860151  RH  044%=      5-min Rain = 0
KME1 162342Z 06005KT 29/15 A3003 RMK A01 T02860151  RH  044%=      5-min Rain = 0
KME1 162343Z 07005KT 29/15 A3003 RMK A01 T02860152  RH  044%=      5-min Rain = 0
KME1 162344Z 07004KT 29/15 A3003 RMK A01 T02860149  RH  043%=      5-min Rain = 0
KME1 162345Z 07003KT 29/15 A3003 RMK A01 T02860152  RH  044%=      5-min Rain = 0
KME1 162346Z 07002KT 29/15 A3003 RMK A01 T02860154  RH  045%=      5-min Rain = 0
KME1 162347Z 07003KT 29/15 A3003 RMK A01 T02850153  RH  044%=      5-min Rain = 0
KME1 162348Z 06004KT 29/15 A3003 RMK A01 T02850154  RH  045%=      5-min Rain = 0
KME1 162349Z 06005KT 29/15 A3003 RMK A01 T02860153  RH  045%=      5-min Rain = 0
KME1 162350Z 07005KT 29/15 A3003 RMK A01 T02850153  RH  045%=      5-min Rain = 0
KME1 162351Z 07005KT 29/15 A3004 RMK A01 T02850153  RH  044%=      5-min Rain = 0
KME1 162352Z 06004KT 29/15 A3004 RMK A01 T02850152  RH  044%=      5-min Rain = 0
KME1 162353Z 06005KT 28/15 A3004 RMK A01 T02840151  RH  044%=      5-min Rain = 0
KME1 162354Z 06004KT 29/15 A3004 RMK A01 T02850151  RH  044%=      5-min Rain = 0
KME1 162355Z 07004KT 28/15 A3004 RMK A01 T02840153  RH  045%=      5-min Rain = 0
KME1 162356Z 07003KT 28/16 A3004 RMK A01 T02840155  RH  045%=      5-min Rain = 0
KME1 162357Z 08003KT 28/16 A3004 RMK A01 T02830156  RH  046%=      5-min Rain = 0
KME1 162358Z 07003KT 28/16 A3004 RMK A01 T02830155  RH  046%=      5-min Rain = 0
KME1 162359Z 08004KT 28/16 A3004 RMK A01 T02820155  RH  046%=      5-min Rain = 0
KME1 170000Z 09003KT 28/16 A3004 RMK A01 T02820155  RH  046%=      5-min Rain = 0
KME1 170001Z 08003KT 28/16 A3004 RMK A01 T02820157  RH  047%=      5-min Rain = 0
KME1 170002Z 08002KT 28/16 A3004 RMK A01 T02810156  RH  047%=      5-min Rain = 0
KME1 170003Z 08003KT 28/16 A3004 RMK A01 T02810156  RH  047%=      5-min Rain = 0
KME1 170004Z 08003KT 28/16 A3004 RMK A01 T02810156  RH  047%=      5-min Rain = 0
KME1 170005Z 08003KT 28/16 A3004 RMK A01 T02800156  RH  047%=      5-min Rain = 0
KME1 170006Z 08003KT 28/16 A3004 RMK A01 T02800155  RH  047%=      5-min Rain = 0
KME1 170007Z 08003KT 28/16 A3004 RMK A01 T02790157  RH  047%=      5-min Rain = 0
KME1 170008Z 07002KT 28/16 A3004 RMK A01 T02790158  RH  048%=      5-min Rain = 0
KME1 170009Z 07002KT 28/16 A3004 RMK A01 T02780157  RH  048%=      5-min Rain = 0
KME1 170010Z 07003KT 28/16 A3004 RMK A01 T02780156  RH  047%=      5-min Rain = 0
KME1 170011Z 07004KT 28/16 A3004 RMK A01 T02780157  RH  048%=      5-min Rain = 0
KME1 170012Z 07003KT 28/16 A3004 RMK A01 T02770157  RH  048%=      5-min Rain = 0
KME1 170013Z 07003KT 28/16 A3004 RMK A01 T02770157  RH  048%=      5-min Rain = 0
KME1 170014Z 08003KT 28/16 A3004 RMK A01 T02760158  RH  048%=      5-min Rain = 0
KME1 170015Z 08003KT 28/16 A3004 RMK A01 T02760158  RH  049%=      5-min Rain = 0
KME1 170016Z 08003KT 28/16 A3004 RMK A01 T02750156  RH  048%=      5-min Rain = 0
KME1 170017Z 08002KT 27/16 A3004 RMK A01 T02740158  RH  049%=      5-min Rain = 0
KME1 170018Z 07002KT 27/16 A3004 RMK A01 T02740157  RH  049%=      5-min Rain = 0
KME1 170019Z 07002KT 27/16 A3004 RMK A01 T02730156  RH  049%=      5-min Rain = 0
KME1 170020Z 07002KT 27/16 A3004 RMK A01 T02730157  RH  049%=      5-min Rain = 0
KME1 170021Z 07002KT 27/16 A3004 RMK A01 T02730157  RH  049%=      5-min Rain = 0
KME1 170022Z 07003KT 27/16 A3004 RMK A01 T02720155  RH  049%=      5-min Rain = 0
KME1 170023Z 07003KT 27/16 A3004 RMK A01 T02720155  RH  049%=      5-min Rain = 0
KME1 170024Z 07002KT 27/16 A3004 RMK A01 T02720157  RH  050%=      5-min Rain = 0
KME1 170025Z 07003KT 27/16 A3004 RMK A01 T02710158  RH  050%=      5-min Rain = 0
KME1 170026Z 07003KT 27/16 A3004 RMK A01 T02710156  RH  049%=      5-min Rain = 0
KME1 170027Z 07003KT 27/16 A3004 RMK A01 T02700155  RH  049%=      5-min Rain = 0
KME1 170028Z 07003KT 27/16 A3004 RMK A01 T02700157  RH  050%=      5-min Rain = 0
KME1 170029Z 07003KT 27/16 A3004 RMK A01 T02690156  RH  050%=      5-min Rain = 0
KME1 170030Z 07003KT 27/16 A3004 RMK A01 T02680157  RH  050%=      5-min Rain = 0
KME1 170031Z 07003KT 27/16 A3004 RMK A01 T02680156  RH  050%=      5-min Rain = 0
KME1 170032Z 07003KT 27/16 A3004 RMK A01 T02670156  RH  050%=      5-min Rain = 0
KME1 170033Z 07003KT 27/16 A3004 RMK A01 T02670155  RH  050%=      5-min Rain = 0
KME1 170034Z 07003KT 27/16 A3004 RMK A01 T02660156  RH  051%=      5-min Rain = 0
KME1 170035Z 07003KT 27/15 A3004 RMK A01 T02660154  RH  050%=      5-min Rain = 0
KME1 170036Z 07003KT 27/16 A3004 RMK A01 T02650156  RH  051%=      5-min Rain = 0
KME1 170037Z 07003KT 26/16 A3004 RMK A01 T02640156  RH  051%=      5-min Rain = 0
KME1 170038Z 07002KT 26/16 A3004 RMK A01 T02640158  RH  052%=      5-min Rain = 0
KME1 170039Z 07002KT 26/16 A3004 RMK A01 T02630156  RH  052%=      5-min Rain = 0
KME1 170040Z 07002KT 26/15 A3004 RMK A01 T02620154  RH  051%=      5-min Rain = 0
KME1 170041Z 06003KT 26/16 A3004 RMK A01 T02620155  RH  052%=      5-min Rain = 0
KME1 170042Z 06002KT 26/16 A3004 RMK A01 T02610156  RH  052%=      5-min Rain = 0
KME1 170043Z 06002KT 26/16 A3004 RMK A01 T02610156  RH  053%=      5-min Rain = 0
KME1 170044Z 06002KT 26/16 A3004 RMK A01 T02600155  RH  052%=      5-min Rain = 0
KME1 170045Z 06002KT 26/15 A3004 RMK A01 T02590154  RH  052%=      5-min Rain = 0
KME1 170046Z 06002KT 26/15 A3004 RMK A01 T02590153  RH  052%=      5-min Rain = 0
KME1 170047Z 05002KT 26/15 A3004 RMK A01 T02590152  RH  052%=      5-min Rain = 0
KME1 170048Z 05002KT 26/15 A3004 RMK A01 T02590151  RH  051%=      5-min Rain = 0
KME1 170049Z 06002KT 26/15 A3004 RMK A01 T02580151  RH  051%=      5-min Rain = 0
KME1 170050Z 05002KT 26/16 A3004 RMK A01 T02580155  RH  053%=      5-min Rain = 0
KME1 170051Z 05002KT 26/16 A3004 RMK A01 T02580155  RH  053%=      5-min Rain = 0
KME1 170052Z 05001KT 26/16 A3004 RMK A01 T02570155  RH  053%=      5-min Rain = 0
KME1 170053Z 04001KT 26/15 A3004 RMK A01 T02560154  RH  053%=      5-min Rain = 0
KME1 170054Z 04001KT 26/15 A3004 RMK A01 T02560154  RH  053%=      5-min Rain = 0
KME1 170055Z 04001KT 26/15 A3004 RMK A01 T02550153  RH  053%=      5-min Rain = 0
KME1 170056Z 04001KT 26/15 A3004 RMK A01 T02550153  RH  053%=      5-min Rain = 0
KME1 170057Z 04001KT 25/15 A3004 RMK A01 T02540152  RH  053%=      5-min Rain = 0
KME1 170058Z 04001KT 26/15 A3004 RMK A01 T02550152  RH  053%=      5-min Rain = 0
KME1 170059Z 03001KT 25/15 A3004 RMK A01 T02540153  RH  053%=      5-min Rain = 0
KME1 170100Z 03001KT 25/15 A3004 RMK A01 T02540154  RH  054%=      5-min Rain = 0
KME1 170101Z 04001KT 25/15 A3004 RMK A01 T02530154  RH  054%=      5-min Rain = 0
KME1 170102Z 04001KT 25/15 A3004 RMK A01 T02530154  RH  054%=      5-min Rain = 0
KME1 170103Z 04001KT 25/16 A3004 RMK A01 T02520155  RH  055%=      5-min Rain = 0
KME1 170104Z 03001KT 25/15 A3004 RMK A01 T02520154  RH  055%=      5-min Rain = 0
KME1 170105Z 03001KT 25/15 A3004 RMK A01 T02520154  RH  055%=      5-min Rain = 0
KME1 170106Z 03001KT 25/15 A3004 RMK A01 T02520154  RH  055%=      5-min Rain = 0
KME1 170107Z 03001KT 25/16 A3004 RMK A01 T02520157  RH  056%=      5-min Rain = 0
KME1 170108Z 02001KT 25/17 A3004 RMK A01 T02510165  RH  059%=      5-min Rain = 0
KME1 170109Z 01001KT 25/17 A3005 RMK A01 T02500171  RH  061%=      5-min Rain = 0
KME1 170110Z 01001KT 25/17 A3005 RMK A01 T02490174  RH  063%=      5-min Rain = 0
KME1 170111Z 00000KT 25/18 A3005 RMK A01 T02470177  RH  065%=      5-min Rain = 0
KME1 170112Z 00000KT 25/18 A3005 RMK A01 T02460181  RH  067%=      5-min Rain = 0
KME1 170113Z 00000KT 24/18 A3005 RMK A01 T02440181  RH  068%=      5-min Rain = 0
KME1 170114Z 00000KT 24/18 A3005 RMK A01 T02420180  RH  069%=      5-min Rain = 0
KME1 170115Z 00000KT 24/18 A3005 RMK A01 T02390178  RH  069%=      5-min Rain = 0
KME1 170116Z 00000KT 24/18 A3005 RMK A01 T02370179  RH  070%=      5-min Rain = 0
KME1 170117Z 00000KT 24/18 A3005 RMK A01 T02360181  RH  071%=      5-min Rain = 0
KME1 170118Z 00000KT 24/18 A3005 RMK A01 T02350183  RH  072%=      5-min Rain = 0
KME1 170119Z 00000KT 24/18 A3005 RMK A01 T02350183  RH  073%=      5-min Rain = 0
KME1 170120Z 00000KT 23/18 A3005 RMK A01 T02340183  RH  073%=      5-min Rain = 0
KME1 170121Z 00000KT 23/18 A3005 RMK A01 T02330182  RH  073%=      5-min Rain = 0
KME1 170122Z 00000KT 23/18 A3005 RMK A01 T02320181  RH  073%=      5-min Rain = 0
KME1 170123Z 00000KT 23/18 A3005 RMK A01 T02310179  RH  072%=      5-min Rain = 0
KME1 170124Z 00000KT 23/18 A3005 RMK A01 T02310180  RH  073%=      5-min Rain = 0
KME1 170125Z 00000KT 23/18 A3005 RMK A01 T02300179  RH  073%=      5-min Rain = 0
KME1 170126Z 00000KT 23/18 A3005 RMK A01 T02280176  RH  072%=      5-min Rain = 0
KME1 170127Z 00000KT 23/18 A3005 RMK A01 T02270175  RH  072%=      5-min Rain = 0
KME1 170128Z 00000KT 23/18 A3005 RMK A01 T02260176  RH  073%=      5-min Rain = 0
KME1 170129Z 00000KT 23/17 A3005 RMK A01 T02250174  RH  073%=      5-min Rain = 0
KME1 170130Z 00000KT 23/17 A3005 RMK A01 T02250173  RH  072%=      5-min Rain = 0
KME1 170131Z 00000KT 22/17 A3005 RMK A01 T02240171  RH  072%=      5-min Rain = 0
KME1 170132Z 00000KT 22/18 A3005 RMK A01 T02240178  RH  075%=      5-min Rain = 0
KME1 170133Z 00000KT 22/18 A3005 RMK A01 T02240178  RH  075%=      5-min Rain = 0
KME1 170134Z 00000KT 22/18 A3005 RMK A01 T02240181  RH  076%=      5-min Rain = 0
KME1 170135Z 00000KT 22/18 A3005 RMK A01 T02240181  RH  077%=      5-min Rain = 0
KME1 170136Z 00000KT 22/18 A3005 RMK A01 T02240181  RH  077%=      5-min Rain = 0
KME1 170137Z 00000KT 22/18 A3005 RMK A01 T02230180  RH  076%=      5-min Rain = 0
KME1 170138Z 00000KT 22/18 A3006 RMK A01 T02230176  RH  075%=      5-min Rain = 0
KME1 170139Z 00000KT 22/18 A3006 RMK A01 T02230179  RH  076%=      5-min Rain = 0
KME1 170140Z 00000KT 22/18 A3006 RMK A01 T02230176  RH  075%=      5-min Rain = 0
KME1 170141Z 00000KT 22/18 A3006 RMK A01 T02230176  RH  074%=      5-min Rain = 0
KME1 170142Z 00000KT 22/18 A3006 RMK A01 T02240177  RH  075%=      5-min Rain = 0
KME1 170143Z 00000KT 22/17 A3006 RMK A01 T02230174  RH  074%=      5-min Rain = 0
KME1 170144Z 00000KT 22/18 A3006 RMK A01 T02230177  RH  076%=      5-min Rain = 0
KME1 170145Z 00000KT 22/17 A3006 RMK A01 T02220172  RH  073%=      5-min Rain = 0
KME1 170146Z 00000KT 22/17 A3006 RMK A01 T02210166  RH  071%=      5-min Rain = 0
KME1 170147Z 33001KT 22/17 A3006 RMK A01 T02210165  RH  070%=      5-min Rain = 0
KME1 170148Z 32002KT 22/16 A3006 RMK A01 T02210163  RH  069%=      5-min Rain = 0
KME1 170149Z 31002KT 22/16 A3006 RMK A01 T02210157  RH  067%=      5-min Rain = 0
KME1 170150Z 32002KT 22/16 A3006 RMK A01 T02230162  RH  068%=      5-min Rain = 0
KME1 170151Z 33002KT 22/17 A3006 RMK A01 T02240167  RH  070%=      5-min Rain = 0
KME1 170152Z 33002KT 22/17 A3006 RMK A01 T02230167  RH  070%=      5-min Rain = 0
KME1 170153Z 32003KT 22/17 A3006 RMK A01 T02220166  RH  071%=      5-min Rain = 0
KME1 170154Z 33003KT 22/17 A3006 RMK A01 T02210167  RH  071%=      5-min Rain = 0
KME1 170155Z 33003KT 22/17 A3007 RMK A01 T02200167  RH  072%=      5-min Rain = 0
KME1 170156Z 33004KT 22/17 A3007 RMK A01 T02200174  RH  075%=      5-min Rain = 0
KME1 170157Z 33004KT 22/17 A3007 RMK A01 T02170171  RH  075%=      5-min Rain = 0
KME1 170158Z 33004KT 22/17 A3007 RMK A01 T02160169  RH  075%=      5-min Rain = 0
KME1 170159Z 32004KT 22/17 A3007 RMK A01 T02150171  RH  076%=      5-min Rain = 0
KME1 170200Z 33004KT 22/17 A3007 RMK A01 T02150172  RH  076%=      5-min Rain = 0
KME1 170201Z 33004KT 21/17 A3007 RMK A01 T02140168  RH  075%=      5-min Rain = 0
KME1 170202Z 33004KT 21/17 A3007 RMK A01 T02140169  RH  076%=      5-min Rain = 0
KME1 170203Z 34003KT 21/17 A3007 RMK A01 T02130172  RH  077%=      5-min Rain = 0
KME1 170204Z 34003KT 21/17 A3007 RMK A01 T02120169  RH  076%=      5-min Rain = 0
KME1 170205Z 35003KT 21/17 A3007 RMK A01 T02120166  RH  075%=      5-min Rain = 0
KME1 170206Z 34002KT 21/17 A3007 RMK A01 T02130173  RH  078%=      5-min Rain = 0
KME1 170207Z 35003KT 21/18 A3007 RMK A01 T02120175  RH  079%=      5-min Rain = 0
KME1 170208Z 34003KT 21/17 A3007 RMK A01 T02110171  RH  078%=      5-min Rain = 0
KME1 170209Z 34003KT 21/17 A3007 RMK A01 T02110174  RH  079%=      5-min Rain = 0
KME1 170210Z 36003KT 21/17 A3007 RMK A01 T02100171  RH  079%=      5-min Rain = 0
KME1 170211Z 36003KT 21/17 A3007 RMK A01 T02100169  RH  077%=      5-min Rain = 0
KME1 170212Z 36002KT 21/17 A3007 RMK A01 T02100170  RH  078%=      5-min Rain = 0
KME1 170213Z 01002KT 21/17 A3007 RMK A01 T02110172  RH  078%=      5-min Rain = 0
KME1 170214Z 01001KT 21/17 A3007 RMK A01 T02110174  RH  079%=      5-min Rain = 0
KME1 170215Z 01001KT 21/18 A3008 RMK A01 T02110177  RH  081%=      5-min Rain = 0
KME1 170216Z 36002KT 21/18 A3008 RMK A01 T02100178  RH  082%=      5-min Rain = 0
KME1 170217Z 35002KT 21/18 A3008 RMK A01 T02100180  RH  083%=      5-min Rain = 0
KME1 170218Z 35002KT 21/18 A3008 RMK A01 T02100181  RH  084%=      5-min Rain = 0
KME1 170219Z 35002KT 21/18 A3008 RMK A01 T02090181  RH  084%=      5-min Rain = 0
KME1 170220Z 35002KT 21/18 A3008 RMK A01 T02090180  RH  084%=      5-min Rain = 0
KME1 170221Z 35002KT 21/18 A3008 RMK A01 T02080181  RH  085%=      5-min Rain = 0
KME1 170222Z 35002KT 21/18 A3008 RMK A01 T02080180  RH  084%=      5-min Rain = 0
KME1 170223Z 36002KT 21/18 A3008 RMK A01 T02070184  RH  086%=      5-min Rain = 0
KME1 170224Z 01001KT 21/18 A3008 RMK A01 T02070178  RH  083%=      5-min Rain = 0
KME1 170225Z 01002KT 21/18 A3008 RMK A01 T02080175  RH  081%=      5-min Rain = 0
KME1 170226Z 36002KT 21/18 A3008 RMK A01 T02090178  RH  082%=      5-min Rain = 0
KME1 170227Z 00002KT 21/17 A3008 RMK A01 T02100170  RH  078%=      5-min Rain = 0
KME1 170228Z 36002KT 21/17 A3008 RMK A01 T02110166  RH  075%=      5-min Rain = 0
KME1 170229Z 36004KT 21/17 A3008 RMK A01 T02120165  RH  075%=      5-min Rain = 0
KME1 170230Z 35004KT 21/16 A3008 RMK A01 T02130164  RH  074%=      5-min Rain = 0
KME1 170231Z 35004KT 21/16 A3008 RMK A01 T02130163  RH  073%=      5-min Rain = 0
KME1 170232Z 00003KT 21/16 A3008 RMK A01 T02140163  RH  073%=      5-min Rain = 0
KME1 170233Z 00003KT 21/16 A3008 RMK A01 T02140163  RH  072%=      5-min Rain = 0
KME1 170234Z 36004KT 22/16 A3008 RMK A01 T02150162  RH  072%=      5-min Rain = 0
KME1 170235Z 36003KT 22/16 A3008 RMK A01 T02150161  RH  071%=      5-min Rain = 0
KME1 170236Z 36004KT 22/16 A3009 RMK A01 T02150161  RH  071%=      5-min Rain = 0
KME1 170237Z 36003KT 22/16 A3008 RMK A01 T02150161  RH  071%=      5-min Rain = 0
KME1 170238Z 36003KT 22/16 A3009 RMK A01 T02150163  RH  072%=      5-min Rain = 0
KME1 170239Z 35003KT 22/16 A3009 RMK A01 T02150164  RH  073%=      5-min Rain = 0
KME1 170240Z 35003KT 22/16 A3009 RMK A01 T02150164  RH  073%=      5-min Rain = 0
KME1 170241Z 35003KT 21/17 A3009 RMK A01 T02140165  RH  073%=      5-min Rain = 0
KME1 170242Z 35003KT 21/17 A3009 RMK A01 T02140165  RH  074%=      5-min Rain = 0
KME1 170243Z 35003KT 21/16 A3009 RMK A01 T02130164  RH  073%=      5-min Rain = 0
KME1 170244Z 00003KT 21/17 A3009 RMK A01 T02130167  RH  075%=      5-min Rain = 0
KME1 170245Z 36003KT 21/17 A3009 RMK A01 T02130167  RH  075%=      5-min Rain = 0
KME1 170246Z 35003KT 21/17 A3009 RMK A01 T02120167  RH  075%=      5-min Rain = 0
KME1 170247Z 36003KT 21/17 A3009 RMK A01 T02120167  RH  076%=      5-min Rain = 0
KME1 170248Z 35003KT 21/17 A3009 RMK A01 T02110166  RH  075%=      5-min Rain = 0
KME1 170249Z 36003KT 21/17 A3009 RMK A01 T02110165  RH  075%=      5-min Rain = 0
KME1 170250Z 36003KT 21/16 A3009 RMK A01 T02100164  RH  075%=      5-min Rain = 0
KME1 170251Z 00002KT 21/17 A3009 RMK A01 T02100165  RH  076%=      5-min Rain = 0
KME1 170252Z 36002KT 21/17 A3009 RMK A01 T02100165  RH  076%=      5-min Rain = 0
KME1 170253Z 36002KT 21/16 A3009 RMK A01 T02090163  RH  075%=      5-min Rain = 0
KME1 170254Z 01001KT 21/17 A3009 RMK A01 T02090166  RH  076%=      5-min Rain = 0
KME1 170255Z 03000KT 21/17 A3009 RMK A01 T02090171  RH  079%=      5-min Rain = 0
KME1 170256Z 15000KT 21/17 A3009 RMK A01 T02070170  RH  080%=      5-min Rain = 0
KME1 170257Z 15000KT 20/17 A3009 RMK A01 T02040171  RH  081%=      5-min Rain = 0
KME1 170258Z 15000KT 20/17 A3009 RMK A01 T02030171  RH  082%=      5-min Rain = 0
KME1 170259Z 17001KT 20/17 A3009 RMK A01 T02010172  RH  083%=      5-min Rain = 0
KME1 170300Z 17000KT 20/17 A3009 RMK A01 T02010172  RH  084%=      5-min Rain = 0
KME1 170301Z 00000KT 20/17 A3009 RMK A01 T02000171  RH  083%=      5-min Rain = 0
KME1 170302Z 00000KT 20/17 A3009 RMK A01 T02000172  RH  084%=      5-min Rain = 0
KME1 170303Z 00000KT 20/18 A3009 RMK A01 T02000175  RH  086%=      5-min Rain = 0
KME1 170304Z 00000KT 20/17 A3009 RMK A01 T02000174  RH  085%=      5-min Rain = 0
KME1 170305Z 00000KT 20/17 A301 RMK A01 T02000174  RH  085%=      5-min Rain = 0
KME1 170306Z 18000KT 20/17 A301 RMK A01 T02000173  RH  084%=      5-min Rain = 0
KME1 170307Z 00000KT 20/17 A301 RMK A01 T02000172  RH  084%=      5-min Rain = 0
KME1 170308Z 00000KT 20/17 A301 RMK A01 T01990172  RH  084%=      5-min Rain = 0
KME1 170309Z 00000KT 20/17 A301 RMK A01 T01990173  RH  085%=      5-min Rain = 0
KME1 170310Z 00000KT 20/17 A301 RMK A01 T01990173  RH  085%=      5-min Rain = 0
KME1 170311Z 00000KT 20/17 A301 RMK A01 T01990174  RH  085%=      5-min Rain = 0
KME1 170312Z 17001KT 20/18 A301 RMK A01 T01990175  RH  086%=      5-min Rain = 0
KME1 170313Z 17001KT 20/18 A301 RMK A01 T02000175  RH  086%=      5-min Rain = 0
KME1 170314Z 18001KT 20/17 A301 RMK A01 T01990174  RH  085%=      5-min Rain = 0
KME1 170315Z 18001KT 20/17 A301 RMK A01 T01990174  RH  086%=      5-min Rain = 0
KME1 170316Z 18001KT 20/17 A301 RMK A01 T01980174  RH  086%=      5-min Rain = 0
KME1 170317Z 19001KT 20/18 A301 RMK A01 T01980175  RH  087%=      5-min Rain = 0
KME1 170318Z 19001KT 20/18 A301 RMK A01 T01980177  RH  088%=      5-min Rain = 0
KME1 170319Z 19001KT 20/18 A301 RMK A01 T01970177  RH  088%=      5-min Rain = 0
KME1 170320Z 19001KT 20/18 A301 RMK A01 T01970176  RH  088%=      5-min Rain = 0
KME1 170321Z 20001KT 20/18 A301 RMK A01 T01970177  RH  088%=      5-min Rain = 0
KME1 170322Z 20001KT 20/18 A301 RMK A01 T01970177  RH  089%=      5-min Rain = 0
KME1 170323Z 20001KT 20/18 A301 RMK A01 T01970180  RH  090%=      5-min Rain = 0
KME1 170324Z 20001KT 20/18 A301 RMK A01 T01970182  RH  091%=      5-min Rain = 0
KME1 170325Z 20000KT 20/18 A301 RMK A01 T01970184  RH  092%=      5-min Rain = 0
KME1 170326Z 00000KT 20/19 A301 RMK A01 T01960185  RH  093%=      5-min Rain = 0
KME1 170327Z 00000KT 20/19 A301 RMK A01 T01960186  RH  094%=      5-min Rain = 0
KME1 170328Z 00000KT 20/19 A301 RMK A01 T01960186  RH  094%=      5-min Rain = 0
KME1 170329Z 00000KT 20/18 A301 RMK A01 T01970183  RH  092%=      5-min Rain = 0
KME1 170330Z 00000KT 20/18 A301 RMK A01 T01970182  RH  091%=      5-min Rain = 0
KME1 170331Z 00000KT 20/18 A301 RMK A01 T01960182  RH  091%=      5-min Rain = 0
KME1 170332Z 00000KT 20/18 A301 RMK A01 T01960184  RH  093%=      5-min Rain = 0
KME1 170333Z 00000KT 20/19 A301 RMK A01 T01970185  RH  093%=      5-min Rain = 0
KME1 170334Z 00000KT 20/18 A301 RMK A01 T01970182  RH  091%=      5-min Rain = 0
KME1 170335Z 34001KT 20/18 A301 RMK A01 T01970180  RH  090%=      5-min Rain = 0
KME1 170336Z 34001KT 20/18 A301 RMK A01 T01970178  RH  089%=      5-min Rain = 0
KME1 170337Z 34001KT 20/17 A301 RMK A01 T01970172  RH  085%=      5-min Rain = 0
KME1 170338Z 34000KT 20/17 A301 RMK A01 T01970169  RH  084%=      5-min Rain = 0
KME1 170339Z 00000KT 20/18 A301 RMK A01 T01980175  RH  087%=      5-min Rain = 0
KME1 170340Z 00000KT 20/18 A301 RMK A01 T01990181  RH  089%=      5-min Rain = 0
KME1 170341Z 00000KT 20/18 A301 RMK A01 T01990183  RH  091%=      5-min Rain = 0
KME1 170342Z 00000KT 20/19 A301 RMK A01 T01980185  RH  092%=      5-min Rain = 0
KME1 170343Z 00000KT 20/19 A301 RMK A01 T01980186  RH  093%=      5-min Rain = 0
KME1 170344Z 00000KT 20/19 A301 RMK A01 T01970185  RH  093%=      5-min Rain = 0
KME1 170345Z 00000KT 20/18 A301 RMK A01 T01950183  RH  093%=      5-min Rain = 0
KME1 170346Z 00000KT 19/18 A301 RMK A01 T01940182  RH  092%=      5-min Rain = 0
KME1 170347Z 00000KT 19/18 A301 RMK A01 T01940179  RH  091%=      5-min Rain = 0
KME1 170348Z 00000KT 19/18 A301 RMK A01 T01940178  RH  091%=      5-min Rain = 0
KME1 170349Z 14000KT 19/18 A301 RMK A01 T01940178  RH  091%=      5-min Rain = 0
KME1 170350Z 16001KT 19/18 A301 RMK A01 T01940179  RH  091%=      5-min Rain = 0
KME1 170351Z 17001KT 19/18 A301 RMK A01 T01930179  RH  091%=      5-min Rain = 0
KME1 170352Z 16002KT 19/18 A301 RMK A01 T01930179  RH  092%=      5-min Rain = 0
KME1 170353Z 16002KT 19/18 A301 RMK A01 T01930179  RH  092%=      5-min Rain = 0
KME1 170354Z 16002KT 19/18 A301 RMK A01 T01920180  RH  093%=      5-min Rain = 0
KME1 170355Z 16003KT 19/18 A301 RMK A01 T01910181  RH  094%=      5-min Rain = 0
KME1 170356Z 16003KT 19/18 A301 RMK A01 T01910182  RH  095%=      5-min Rain = 0
KME1 170357Z 16002KT 19/18 A301 RMK A01 T01900183  RH  096%=      5-min Rain = 0
KME1 170358Z 16002KT 19/18 A301 RMK A01 T01900184  RH  096%=      5-min Rain = 0
KME1 170359Z 16002KT 19/19 A301 RMK A01 T01900185  RH  097%=      5-min Rain = 0
KME1 170400Z 17002KT 19/19 A301 RMK A01 T01890185  RH  097%=      5-min Rain = 0
KME1 170401Z 18002KT 19/19 A301 RMK A01 T01890186  RH  098%=      5-min Rain = 0
KME1 170402Z 19002KT 19/19 A301 RMK A01 T01890185  RH  098%=      5-min Rain = 0
KME1 170403Z 20002KT 19/19 A301 RMK A01 T01890186  RH  098%=      5-min Rain = 0
KME1 170404Z 22002KT 19/19 A301 RMK A01 T01890186  RH  098%=      5-min Rain = 0
KME1 170405Z 23002KT 19/19 A301 RMK A01 T01890187  RH  099%=      5-min Rain = 0
KME1 170406Z 24002KT 19/19 A301 RMK A01 T01880187  RH  099%=      5-min Rain = 0
KME1 170407Z 26002KT 19/19 A301 RMK A01 T01880185  RH  098%=      5-min Rain = 0
KME1 170408Z 26001KT 19/19 A301 RMK A01 T01880185  RH  098%=      5-min Rain = 0
KME1 170409Z 29001KT 19/18 A301 RMK A01 T01880184  RH  097%=      5-min Rain = 0
KME1 170410Z 31000KT 19/18 A301 RMK A01 T01890183  RH  097%=      5-min Rain = 0
KME1 170411Z 30001KT 19/18 A301 RMK A01 T01890184  RH  097%=      5-min Rain = 0
KME1 170412Z 32001KT 19/18 A301 RMK A01 T01890181  RH  095%=      5-min Rain = 0
KME1 170413Z 34000KT 19/18 A301 RMK A01 T01890181  RH  095%=      5-min Rain = 0
KME1 170414Z 32001KT 19/18 A301 RMK A01 T01890181  RH  095%=      5-min Rain = 0
KME1 170415Z 32001KT 19/18 A301 RMK A01 T01890181  RH  095%=      5-min Rain = 0
KME1 170416Z 34001KT 19/18 A3011 RMK A01 T01880181  RH  095%=      5-min Rain = 0
KME1 170417Z 33002KT 19/18 A3011 RMK A01 T01880180  RH  095%=      5-min Rain = 0
KME1 170418Z 33002KT 19/18 A3011 RMK A01 T01870180  RH  095%=      5-min Rain = 0
KME1 170419Z 34002KT 19/18 A3011 RMK A01 T01870178  RH  094%=      5-min Rain = 0
KME1 170420Z 34003KT 19/18 A3011 RMK A01 T01870176  RH  093%=      5-min Rain = 0
KME1 170421Z 34003KT 19/18 A3011 RMK A01 T01870175  RH  093%=      5-min Rain = 0
KME1 170422Z 35003KT 19/17 A3011 RMK A01 T01870174  RH  092%=      5-min Rain = 0
KME1 170423Z 36003KT 19/18 A3011 RMK A01 T01870175  RH  092%=      5-min Rain = 0
KME1 170424Z 35003KT 19/17 A3011 RMK A01 T01880174  RH  092%=      5-min Rain = 0
KME1 170425Z 36003KT 19/17 A3011 RMK A01 T01880174  RH  092%=      5-min Rain = 0
KME1 170426Z 36004KT 19/17 A3011 RMK A01 T01880173  RH  091%=      5-min Rain = 0
KME1 170427Z 00004KT 19/17 A3011 RMK A01 T01900171  RH  089%=      5-min Rain = 0
KME1 170428Z 00004KT 19/17 A3011 RMK A01 T01910170  RH  087%=      5-min Rain = 0
KME1 170429Z 00004KT 19/17 A3011 RMK A01 T01930168  RH  085%=      5-min Rain = 0
KME1 170430Z 01004KT 20/17 A3011 RMK A01 T01950168  RH  084%=      5-min Rain = 0
KME1 170431Z 01004KT 20/17 A3011 RMK A01 T01970166  RH  083%=      5-min Rain = 0
KME1 170432Z 01004KT 20/17 A3011 RMK A01 T01990165  RH  081%=      5-min Rain = 0
KME1 170433Z 01004KT 20/17 A3011 RMK A01 T02010165  RH  080%=      5-min Rain = 0
KME1 170434Z 02004KT 20/16 A3011 RMK A01 T02030164  RH  078%=      5-min Rain = 0
KME1 170435Z 03004KT 21/16 A3011 RMK A01 T02050164  RH  077%=      5-min Rain = 0
KME1 170436Z 02004KT 21/16 A3011 RMK A01 T02060164  RH  076%=      5-min Rain = 0
KME1 170437Z 02003KT 21/16 A3011 RMK A01 T02080164  RH  076%=      5-min Rain = 0
KME1 170438Z 03004KT 21/16 A3011 RMK A01 T02070164  RH  076%=      5-min Rain = 0
KME1 170439Z 03003KT 21/16 A3011 RMK A01 T02080164  RH  076%=      5-min Rain = 0
KME1 170440Z 02004KT 21/16 A3011 RMK A01 T02080163  RH  076%=      5-min Rain = 0
KME1 170441Z 02004KT 21/16 A3011 RMK A01 T02080163  RH  076%=      5-min Rain = 0
KME1 170442Z 02003KT 21/16 A3011 RMK A01 T02080164  RH  076%=      5-min Rain = 0
KME1 170443Z 02004KT 21/16 A3011 RMK A01 T02080164  RH  076%=      5-min Rain = 0
KME1 170444Z 02003KT 21/17 A3011 RMK A01 T02070165  RH  076%=      5-min Rain = 0
KME1 170445Z 02003KT 21/17 A3011 RMK A01 T02070165  RH  077%=      5-min Rain = 0
KME1 170446Z 02004KT 21/16 A3011 RMK A01 T02070164  RH  076%=      5-min Rain = 0
KME1 170447Z 01003KT 21/16 A3011 RMK A01 T02060164  RH  077%=      5-min Rain = 0
KME1 170448Z 01003KT 21/16 A3011 RMK A01 T02060164  RH  077%=      5-min Rain = 0
KME1 170449Z 01004KT 21/16 A3011 RMK A01 T02050164  RH  077%=      5-min Rain = 0
KME1 170450Z 02004KT 21/17 A3011 RMK A01 T02050165  RH  078%=      5-min Rain = 0
KME1 170451Z 02004KT 20/17 A3011 RMK A01 T02040165  RH  078%=      5-min Rain = 0
KME1 170452Z 02004KT 20/17 A3011 RMK A01 T02040165  RH  079%=      5-min Rain = 0
KME1 170453Z 02004KT 20/17 A3011 RMK A01 T02030165  RH  079%=      5-min Rain = 0
KME1 170454Z 02004KT 20/17 A3011 RMK A01 T02020165  RH  079%=      5-min Rain = 0
KME1 170455Z 02003KT 20/17 A3011 RMK A01 T02020166  RH  079%=      5-min Rain = 0
KME1 170456Z 02004KT 20/17 A3011 RMK A01 T02020166  RH  080%=      5-min Rain = 0
KME1 170457Z 02004KT 20/17 A3011 RMK A01 T02010166  RH  080%=      5-min Rain = 0
KME1 170458Z 02004KT 20/17 A3011 RMK A01 T02010166  RH  080%=      5-min Rain = 0
KME1 170459Z 02004KT 20/17 A3012 RMK A01 T02010167  RH  080%=      5-min Rain = 0

Page generated in 0.1284 seconds.